<?xml version="1.0" encoding="UTF-8" standalone="no" ?>
<gpx xmlns="http://www.topografix.com/GPX/1/1" xmlns:xsi="http://www.w3.org/2001/XMLSchema-instance" xsi:schemaLocation="http://www.topografix.com/GPX/1/1 http://www.topografix.com/GPX/1/1/gpx.xsd" version="1.1" creator="VisuGPX - https://www.visugpx.com">
  <metadata>
    <name>Morceau de la Troglodyte14 Fait avec Cuicui</name>
    <desc><![CDATA[Morceau de la Troglodyte14 Fait avec Cuicui le 14 Juillet]]></desc>
  </metadata>
  <trk>
    <name><![CDATA[Troglo14Fait Cuicui]]></name>
    <trkseg>
      <trkpt lat="49.31833" lon="0.99453">
        <ele>-6</ele>
        <time>2014-07-14T08:39:46Z</time>
      </trkpt>
      <trkpt lat="49.31818" lon="0.99455">
        <ele>-5</ele>
        <time>2014-07-14T08:44:25Z</time>
      </trkpt>
      <trkpt lat="49.31808" lon="0.99465">
        <ele>-5</ele>
        <time>2014-07-14T08:44:28Z</time>
      </trkpt>
      <trkpt lat="49.318" lon="0.99483">
        <ele>-5</ele>
        <time>2014-07-14T08:44:32Z</time>
      </trkpt>
      <trkpt lat="49.31793" lon="0.99503">
        <ele>-5</ele>
        <time>2014-07-14T08:44:36Z</time>
      </trkpt>
      <trkpt lat="49.3178" lon="0.99518">
        <ele>-4</ele>
        <time>2014-07-14T08:44:40Z</time>
      </trkpt>
      <trkpt lat="49.3177" lon="0.99535">
        <ele>-3</ele>
        <time>2014-07-14T08:44:44Z</time>
      </trkpt>
      <trkpt lat="49.3176" lon="0.9955">
        <ele>-3</ele>
        <time>2014-07-14T08:44:48Z</time>
      </trkpt>
      <trkpt lat="49.3174" lon="0.99578">
        <ele>-2</ele>
        <time>2014-07-14T08:44:55Z</time>
      </trkpt>
      <trkpt lat="49.31733" lon="0.99595">
        <ele>20.4</ele>
        <time>2014-07-14T08:44:59Z</time>
      </trkpt>
      <trkpt lat="49.31728" lon="0.99618">
        <ele>22.8</ele>
        <time>2014-07-14T08:45:04Z</time>
      </trkpt>
      <trkpt lat="49.31723" lon="0.99638">
        <ele>2</ele>
        <time>2014-07-14T08:45:09Z</time>
      </trkpt>
      <trkpt lat="49.3173" lon="0.99655">
        <ele>4</ele>
        <time>2014-07-14T08:45:17Z</time>
      </trkpt>
      <trkpt lat="49.31743" lon="0.9967">
        <ele>7</ele>
        <time>2014-07-14T08:45:54Z</time>
      </trkpt>
      <trkpt lat="49.31755" lon="0.99683">
        <ele>9</ele>
        <time>2014-07-14T08:46:01Z</time>
      </trkpt>
      <trkpt lat="49.3176" lon="0.99703">
        <ele>11</ele>
        <time>2014-07-14T08:46:07Z</time>
      </trkpt>
      <trkpt lat="49.31773" lon="0.99718">
        <ele>13</ele>
        <time>2014-07-14T08:46:13Z</time>
      </trkpt>
      <trkpt lat="49.3178" lon="0.99735">
        <ele>16</ele>
        <time>2014-07-14T08:46:19Z</time>
      </trkpt>
      <trkpt lat="49.3179" lon="0.9975">
        <ele>19</ele>
        <time>2014-07-14T08:46:25Z</time>
      </trkpt>
      <trkpt lat="49.31808" lon="0.9977">
        <ele>24</ele>
        <time>2014-07-14T08:46:34Z</time>
      </trkpt>
      <trkpt lat="49.3182" lon="0.99788">
        <ele>25</ele>
        <time>2014-07-14T08:46:42Z</time>
      </trkpt>
      <trkpt lat="49.31833" lon="0.99805">
        <ele>30</ele>
        <time>2014-07-14T08:46:49Z</time>
      </trkpt>
      <trkpt lat="49.31838" lon="0.99825">
        <ele>33</ele>
        <time>2014-07-14T08:46:56Z</time>
      </trkpt>
      <trkpt lat="49.31838" lon="0.99848">
        <ele>38</ele>
        <time>2014-07-14T08:47:50Z</time>
      </trkpt>
      <trkpt lat="49.31833" lon="0.99868">
        <ele>39</ele>
        <time>2014-07-14T08:47:54Z</time>
      </trkpt>
      <trkpt lat="49.31825" lon="0.99885">
        <ele>40</ele>
        <time>2014-07-14T08:47:58Z</time>
      </trkpt>
      <trkpt lat="49.31818" lon="0.99905">
        <ele>42</ele>
        <time>2014-07-14T08:48:04Z</time>
      </trkpt>
      <trkpt lat="49.31815" lon="0.99928">
        <ele>44</ele>
        <time>2014-07-14T08:48:11Z</time>
      </trkpt>
      <trkpt lat="49.3181" lon="0.99948">
        <ele>46</ele>
        <time>2014-07-14T08:48:17Z</time>
      </trkpt>
      <trkpt lat="49.31803" lon="0.9997">
        <ele>48</ele>
        <time>2014-07-14T08:48:24Z</time>
      </trkpt>
      <trkpt lat="49.31795" lon="0.99988">
        <ele>50</ele>
        <time>2014-07-14T08:48:31Z</time>
      </trkpt>
      <trkpt lat="49.31788" lon="1.00005">
        <ele>52</ele>
        <time>2014-07-14T08:48:37Z</time>
      </trkpt>
      <trkpt lat="49.31785" lon="1.00028">
        <ele>55</ele>
        <time>2014-07-14T08:48:44Z</time>
      </trkpt>
      <trkpt lat="49.31778" lon="1.00045">
        <ele>57</ele>
        <time>2014-07-14T08:48:50Z</time>
      </trkpt>
      <trkpt lat="49.3177" lon="1.00063">
        <ele>58</ele>
        <time>2014-07-14T08:48:56Z</time>
      </trkpt>
      <trkpt lat="49.3176" lon="1.0008">
        <ele>59</ele>
        <time>2014-07-14T08:49:03Z</time>
      </trkpt>
      <trkpt lat="49.3175" lon="1.00098">
        <ele>63</ele>
        <time>2014-07-14T08:49:09Z</time>
      </trkpt>
      <trkpt lat="49.31745" lon="1.00118">
        <ele>68</ele>
        <time>2014-07-14T08:49:22Z</time>
      </trkpt>
      <trkpt lat="49.31735" lon="1.00145">
        <ele>73</ele>
        <time>2014-07-14T08:50:39Z</time>
      </trkpt>
      <trkpt lat="49.3174" lon="1.00175">
        <ele>73</ele>
        <time>2014-07-14T08:50:43Z</time>
      </trkpt>
      <trkpt lat="49.3175" lon="1.00195">
        <ele>73</ele>
        <time>2014-07-14T08:50:46Z</time>
      </trkpt>
      <trkpt lat="49.31765" lon="1.00205">
        <ele>70.8</ele>
        <time>2014-07-14T08:50:50Z</time>
      </trkpt>
      <trkpt lat="49.31778" lon="1.00218">
        <ele>74</ele>
        <time>2014-07-14T08:50:54Z</time>
      </trkpt>
      <trkpt lat="49.31795" lon="1.0023">
        <ele>74</ele>
        <time>2014-07-14T08:51:01Z</time>
      </trkpt>
      <trkpt lat="49.31793" lon="1.00253">
        <ele>75</ele>
        <time>2014-07-14T08:51:33Z</time>
      </trkpt>
      <trkpt lat="49.31808" lon="1.0025">
        <ele>70</ele>
        <time>2014-07-14T08:52:11Z</time>
      </trkpt>
      <trkpt lat="49.31813" lon="1.00275">
        <ele>70</ele>
        <time>2014-07-14T08:52:16Z</time>
      </trkpt>
      <trkpt lat="49.31825" lon="1.0029">
        <ele>70</ele>
        <time>2014-07-14T08:52:21Z</time>
      </trkpt>
      <trkpt lat="49.31838" lon="1.00303">
        <ele>71</ele>
        <time>2014-07-14T08:52:28Z</time>
      </trkpt>
      <trkpt lat="49.31853" lon="1.00308">
        <ele>71</ele>
        <time>2014-07-14T08:52:36Z</time>
      </trkpt>
      <trkpt lat="49.31865" lon="1.00318">
        <ele>72</ele>
        <time>2014-07-14T08:52:45Z</time>
      </trkpt>
      <trkpt lat="49.3187" lon="1.00298">
        <ele>71</ele>
        <time>2014-07-14T08:52:58Z</time>
      </trkpt>
      <trkpt lat="49.31868" lon="1.00323">
        <ele>74</ele>
        <time>2014-07-14T08:53:07Z</time>
      </trkpt>
      <trkpt lat="49.3186" lon="1.0034">
        <ele>76</ele>
        <time>2014-07-14T08:53:17Z</time>
      </trkpt>
      <trkpt lat="49.31855" lon="1.0036">
        <ele>78</ele>
        <time>2014-07-14T08:53:56Z</time>
      </trkpt>
      <trkpt lat="49.3186" lon="1.0038">
        <ele>78</ele>
        <time>2014-07-14T08:54:00Z</time>
      </trkpt>
      <trkpt lat="49.31873" lon="1.00398">
        <ele>79</ele>
        <time>2014-07-14T08:54:05Z</time>
      </trkpt>
      <trkpt lat="49.31885" lon="1.00408">
        <ele>79</ele>
        <time>2014-07-14T08:54:10Z</time>
      </trkpt>
      <trkpt lat="49.31895" lon="1.00423">
        <ele>80</ele>
        <time>2014-07-14T08:54:15Z</time>
      </trkpt>
      <trkpt lat="49.3191" lon="1.0043">
        <ele>78</ele>
        <time>2014-07-14T08:54:22Z</time>
      </trkpt>
      <trkpt lat="49.31913" lon="1.00458">
        <ele>80</ele>
        <time>2014-07-14T08:54:27Z</time>
      </trkpt>
      <trkpt lat="49.3191" lon="1.0048">
        <ele>78</ele>
        <time>2014-07-14T08:54:32Z</time>
      </trkpt>
      <trkpt lat="49.31913" lon="1.00503">
        <ele>78</ele>
        <time>2014-07-14T08:54:37Z</time>
      </trkpt>
      <trkpt lat="49.31903" lon="1.00518">
        <ele>76</ele>
        <time>2014-07-14T08:54:42Z</time>
      </trkpt>
      <trkpt lat="49.31918" lon="1.00513">
        <ele>71</ele>
        <time>2014-07-14T08:55:25Z</time>
      </trkpt>
      <trkpt lat="49.31935" lon="1.0051">
        <ele>65</ele>
        <time>2014-07-14T08:56:04Z</time>
      </trkpt>
      <trkpt lat="49.3195" lon="1.00515">
        <ele>65</ele>
        <time>2014-07-14T08:56:10Z</time>
      </trkpt>
      <trkpt lat="49.31968" lon="1.00523">
        <ele>66</ele>
        <time>2014-07-14T08:56:16Z</time>
      </trkpt>
      <trkpt lat="49.31973" lon="1.00545">
        <ele>65</ele>
        <time>2014-07-14T08:56:23Z</time>
      </trkpt>
      <trkpt lat="49.31968" lon="1.00568">
        <ele>65</ele>
        <time>2014-07-14T08:56:30Z</time>
      </trkpt>
      <trkpt lat="49.3196" lon="1.00585">
        <ele>67</ele>
        <time>2014-07-14T08:56:41Z</time>
      </trkpt>
      <trkpt lat="49.31968" lon="1.00603">
        <ele>65</ele>
        <time>2014-07-14T08:58:06Z</time>
      </trkpt>
      <trkpt lat="49.31983" lon="1.0061">
        <ele>66</ele>
        <time>2014-07-14T08:58:13Z</time>
      </trkpt>
      <trkpt lat="49.31998" lon="1.00608">
        <ele>66</ele>
        <time>2014-07-14T08:58:16Z</time>
      </trkpt>
      <trkpt lat="49.32013" lon="1.00603">
        <ele>66</ele>
        <time>2014-07-14T08:58:20Z</time>
      </trkpt>
      <trkpt lat="49.32028" lon="1.00608">
        <ele>66</ele>
        <time>2014-07-14T08:58:26Z</time>
      </trkpt>
      <trkpt lat="49.3203" lon="1.00633">
        <ele>65</ele>
        <time>2014-07-14T08:58:32Z</time>
      </trkpt>
      <trkpt lat="49.32028" lon="1.00658">
        <ele>65</ele>
        <time>2014-07-14T08:58:36Z</time>
      </trkpt>
      <trkpt lat="49.32038" lon="1.00678">
        <ele>64</ele>
        <time>2014-07-14T08:58:40Z</time>
      </trkpt>
      <trkpt lat="49.32053" lon="1.00705">
        <ele>64</ele>
        <time>2014-07-14T08:58:44Z</time>
      </trkpt>
      <trkpt lat="49.32058" lon="1.00728">
        <ele>64</ele>
        <time>2014-07-14T08:58:48Z</time>
      </trkpt>
      <trkpt lat="49.3206" lon="1.0075">
        <ele>66</ele>
        <time>2014-07-14T08:58:54Z</time>
      </trkpt>
      <trkpt lat="49.32075" lon="1.00755">
        <ele>67</ele>
        <time>2014-07-14T08:59:00Z</time>
      </trkpt>
      <trkpt lat="49.3209" lon="1.0075">
        <ele>68</ele>
        <time>2014-07-14T08:59:08Z</time>
      </trkpt>
      <trkpt lat="49.32103" lon="1.00735">
        <ele>68</ele>
        <time>2014-07-14T08:59:14Z</time>
      </trkpt>
      <trkpt lat="49.32115" lon="1.00725">
        <ele>70</ele>
        <time>2014-07-14T09:01:56Z</time>
      </trkpt>
      <trkpt lat="49.3213" lon="1.00713">
        <ele>69</ele>
        <time>2014-07-14T09:02:01Z</time>
      </trkpt>
      <trkpt lat="49.32145" lon="1.00703">
        <ele>69</ele>
        <time>2014-07-14T09:02:05Z</time>
      </trkpt>
      <trkpt lat="49.32158" lon="1.0069">
        <ele>69</ele>
        <time>2014-07-14T09:02:10Z</time>
      </trkpt>
      <trkpt lat="49.32173" lon="1.00685">
        <ele>69</ele>
        <time>2014-07-14T09:02:17Z</time>
      </trkpt>
      <trkpt lat="49.32178" lon="1.00705">
        <ele>69</ele>
        <time>2014-07-14T09:02:26Z</time>
      </trkpt>
      <trkpt lat="49.3218" lon="1.0073">
        <ele>69</ele>
        <time>2014-07-14T09:02:33Z</time>
      </trkpt>
      <trkpt lat="49.32193" lon="1.00743">
        <ele>69</ele>
        <time>2014-07-14T09:02:39Z</time>
      </trkpt>
      <trkpt lat="49.32208" lon="1.0075">
        <ele>72</ele>
        <time>2014-07-14T09:02:47Z</time>
      </trkpt>
      <trkpt lat="49.3222" lon="1.0076">
        <ele>72</ele>
        <time>2014-07-14T09:03:00Z</time>
      </trkpt>
      <trkpt lat="49.32215" lon="1.0074">
        <ele>88</ele>
        <time>2014-07-14T09:03:35Z</time>
      </trkpt>
      <trkpt lat="49.3223" lon="1.00745">
        <ele>102</ele>
        <time>2014-07-14T09:05:13Z</time>
      </trkpt>
      <trkpt lat="49.3226" lon="1.00755">
        <ele>102</ele>
        <time>2014-07-14T09:05:20Z</time>
      </trkpt>
      <trkpt lat="49.3227" lon="1.0077">
        <ele>102</ele>
        <time>2014-07-14T09:05:24Z</time>
      </trkpt>
      <trkpt lat="49.32275" lon="1.0079">
        <ele>101</ele>
        <time>2014-07-14T09:05:29Z</time>
      </trkpt>
      <trkpt lat="49.32275" lon="1.00815">
        <ele>102</ele>
        <time>2014-07-14T09:05:34Z</time>
      </trkpt>
      <trkpt lat="49.32275" lon="1.00845">
        <ele>103</ele>
        <time>2014-07-14T09:05:40Z</time>
      </trkpt>
      <trkpt lat="49.32275" lon="1.00878">
        <ele>104</ele>
        <time>2014-07-14T09:05:47Z</time>
      </trkpt>
      <trkpt lat="49.32273" lon="1.00903">
        <ele>105</ele>
        <time>2014-07-14T09:05:53Z</time>
      </trkpt>
      <trkpt lat="49.32273" lon="1.00925">
        <ele>105</ele>
        <time>2014-07-14T09:05:59Z</time>
      </trkpt>
      <trkpt lat="49.32268" lon="1.00945">
        <ele>106</ele>
        <time>2014-07-14T09:06:04Z</time>
      </trkpt>
      <trkpt lat="49.32263" lon="1.0097">
        <ele>108</ele>
        <time>2014-07-14T09:06:10Z</time>
      </trkpt>
      <trkpt lat="49.32268" lon="1.00993">
        <ele>110</ele>
        <time>2014-07-14T09:06:16Z</time>
      </trkpt>
      <trkpt lat="49.32273" lon="1.0102">
        <ele>109</ele>
        <time>2014-07-14T09:06:25Z</time>
      </trkpt>
      <trkpt lat="49.32278" lon="1.0104">
        <ele>109</ele>
        <time>2014-07-14T09:06:35Z</time>
      </trkpt>
      <trkpt lat="49.32285" lon="1.01068">
        <ele>101</ele>
        <time>2014-07-14T09:13:52Z</time>
      </trkpt>
      <trkpt lat="49.323" lon="1.01078">
        <ele>100</ele>
        <time>2014-07-14T09:13:57Z</time>
      </trkpt>
      <trkpt lat="49.32313" lon="1.0109">
        <ele>100</ele>
        <time>2014-07-14T09:14:02Z</time>
      </trkpt>
      <trkpt lat="49.32325" lon="1.01103">
        <ele>102</ele>
        <time>2014-07-14T09:14:10Z</time>
      </trkpt>
      <trkpt lat="49.32338" lon="1.01118">
        <ele>102</ele>
        <time>2014-07-14T09:14:16Z</time>
      </trkpt>
      <trkpt lat="49.32345" lon="1.01135">
        <ele>103</ele>
        <time>2014-07-14T09:14:22Z</time>
      </trkpt>
      <trkpt lat="49.32355" lon="1.01153">
        <ele>105</ele>
        <time>2014-07-14T09:14:28Z</time>
      </trkpt>
      <trkpt lat="49.3236" lon="1.01175">
        <ele>105</ele>
        <time>2014-07-14T09:14:33Z</time>
      </trkpt>
      <trkpt lat="49.32365" lon="1.01198">
        <ele>107</ele>
        <time>2014-07-14T09:14:39Z</time>
      </trkpt>
      <trkpt lat="49.3237" lon="1.01218">
        <ele>108</ele>
        <time>2014-07-14T09:14:45Z</time>
      </trkpt>
      <trkpt lat="49.32365" lon="1.01238">
        <ele>109</ele>
        <time>2014-07-14T09:14:51Z</time>
      </trkpt>
      <trkpt lat="49.3236" lon="1.01258">
        <ele>113</ele>
        <time>2014-07-14T09:15:14Z</time>
      </trkpt>
      <trkpt lat="49.32355" lon="1.01283">
        <ele>115</ele>
        <time>2014-07-14T09:15:21Z</time>
      </trkpt>
      <trkpt lat="49.32358" lon="1.0131">
        <ele>115</ele>
        <time>2014-07-14T09:15:28Z</time>
      </trkpt>
      <trkpt lat="49.32355" lon="1.01335">
        <ele>115</ele>
        <time>2014-07-14T09:15:35Z</time>
      </trkpt>
      <trkpt lat="49.3237" lon="1.01345">
        <ele>115</ele>
        <time>2014-07-14T09:15:40Z</time>
      </trkpt>
      <trkpt lat="49.3238" lon="1.0136">
        <ele>116</ele>
        <time>2014-07-14T09:15:44Z</time>
      </trkpt>
      <trkpt lat="49.32385" lon="1.01383">
        <ele>117</ele>
        <time>2014-07-14T09:15:48Z</time>
      </trkpt>
      <trkpt lat="49.32395" lon="1.014">
        <ele>116</ele>
        <time>2014-07-14T09:16:01Z</time>
      </trkpt>
      <trkpt lat="49.32388" lon="1.01418">
        <ele>116</ele>
        <time>2014-07-14T09:16:07Z</time>
      </trkpt>
      <trkpt lat="49.32385" lon="1.0144">
        <ele>115</ele>
        <time>2014-07-14T09:16:13Z</time>
      </trkpt>
      <trkpt lat="49.32388" lon="1.01465">
        <ele>114</ele>
        <time>2014-07-14T09:16:19Z</time>
      </trkpt>
      <trkpt lat="49.32388" lon="1.01488">
        <ele>116</ele>
        <time>2014-07-14T09:16:26Z</time>
      </trkpt>
      <trkpt lat="49.32393" lon="1.0151">
        <ele>114</ele>
        <time>2014-07-14T09:16:31Z</time>
      </trkpt>
      <trkpt lat="49.324" lon="1.01528">
        <ele>111</ele>
        <time>2014-07-14T09:16:36Z</time>
      </trkpt>
      <trkpt lat="49.32415" lon="1.01533">
        <ele>112</ele>
        <time>2014-07-14T09:16:40Z</time>
      </trkpt>
      <trkpt lat="49.3243" lon="1.01538">
        <ele>111</ele>
        <time>2014-07-14T09:16:46Z</time>
      </trkpt>
      <trkpt lat="49.32445" lon="1.0153">
        <ele>107</ele>
        <time>2014-07-14T09:16:53Z</time>
      </trkpt>
      <trkpt lat="49.3246" lon="1.01533">
        <ele>110</ele>
        <time>2014-07-14T09:17:05Z</time>
      </trkpt>
      <trkpt lat="49.32475" lon="1.01535">
        <ele>113</ele>
        <time>2014-07-14T09:17:15Z</time>
      </trkpt>
      <trkpt lat="49.3249" lon="1.01533">
        <ele>115</ele>
        <time>2014-07-14T09:17:21Z</time>
      </trkpt>
      <trkpt lat="49.325" lon="1.01548">
        <ele>120</ele>
        <time>2014-07-14T09:18:40Z</time>
      </trkpt>
      <trkpt lat="49.32508" lon="1.01565">
        <ele>121</ele>
        <time>2014-07-14T09:19:51Z</time>
      </trkpt>
      <trkpt lat="49.32513" lon="1.01585">
        <ele>121</ele>
        <time>2014-07-14T09:19:55Z</time>
      </trkpt>
      <trkpt lat="49.3252" lon="1.01605">
        <ele>121</ele>
        <time>2014-07-14T09:19:59Z</time>
      </trkpt>
      <trkpt lat="49.32523" lon="1.01628">
        <ele>120</ele>
        <time>2014-07-14T09:20:03Z</time>
      </trkpt>
      <trkpt lat="49.32528" lon="1.01648">
        <ele>120</ele>
        <time>2014-07-14T09:20:07Z</time>
      </trkpt>
      <trkpt lat="49.32523" lon="1.01673">
        <ele>120</ele>
        <time>2014-07-14T09:20:11Z</time>
      </trkpt>
      <trkpt lat="49.32515" lon="1.01695">
        <ele>120</ele>
        <time>2014-07-14T09:20:14Z</time>
      </trkpt>
      <trkpt lat="49.32513" lon="1.01718">
        <ele>120</ele>
        <time>2014-07-14T09:20:17Z</time>
      </trkpt>
      <trkpt lat="49.3252" lon="1.01735">
        <ele>120</ele>
        <time>2014-07-14T09:20:21Z</time>
      </trkpt>
      <trkpt lat="49.3253" lon="1.0175">
        <ele>118</ele>
        <time>2014-07-14T09:20:24Z</time>
      </trkpt>
      <trkpt lat="49.3255" lon="1.01778">
        <ele>118</ele>
        <time>2014-07-14T09:20:28Z</time>
      </trkpt>
      <trkpt lat="49.32558" lon="1.018">
        <ele>117</ele>
        <time>2014-07-14T09:20:31Z</time>
      </trkpt>
      <trkpt lat="49.32565" lon="1.01823">
        <ele>117</ele>
        <time>2014-07-14T09:20:34Z</time>
      </trkpt>
      <trkpt lat="49.32563" lon="1.01848">
        <ele>116</ele>
        <time>2014-07-14T09:20:38Z</time>
      </trkpt>
      <trkpt lat="49.32563" lon="1.0187">
        <ele>115</ele>
        <time>2014-07-14T09:20:44Z</time>
      </trkpt>
      <trkpt lat="49.32563" lon="1.01898">
        <ele>116</ele>
        <time>2014-07-14T09:21:01Z</time>
      </trkpt>
      <trkpt lat="49.32565" lon="1.0192">
        <ele>117</ele>
        <time>2014-07-14T09:21:13Z</time>
      </trkpt>
      <trkpt lat="49.32583" lon="1.01935">
        <ele>119</ele>
        <time>2014-07-14T09:21:30Z</time>
      </trkpt>
      <trkpt lat="49.32598" lon="1.01933">
        <ele>120</ele>
        <time>2014-07-14T09:21:41Z</time>
      </trkpt>
      <trkpt lat="49.32618" lon="1.01933">
        <ele>93</ele>
        <time>2014-07-14T09:25:58Z</time>
      </trkpt>
      <trkpt lat="49.3263" lon="1.01948">
        <ele>93</ele>
        <time>2014-07-14T09:26:04Z</time>
      </trkpt>
      <trkpt lat="49.32643" lon="1.01958">
        <ele>94</ele>
        <time>2014-07-14T09:26:09Z</time>
      </trkpt>
      <trkpt lat="49.32655" lon="1.0197">
        <ele>94</ele>
        <time>2014-07-14T09:26:14Z</time>
      </trkpt>
      <trkpt lat="49.32663" lon="1.01988">
        <ele>95</ele>
        <time>2014-07-14T09:26:18Z</time>
      </trkpt>
      <trkpt lat="49.32673" lon="1.02005">
        <ele>95</ele>
        <time>2014-07-14T09:26:22Z</time>
      </trkpt>
      <trkpt lat="49.32685" lon="1.02023">
        <ele>95</ele>
        <time>2014-07-14T09:26:26Z</time>
      </trkpt>
      <trkpt lat="49.32693" lon="1.02043">
        <ele>94</ele>
        <time>2014-07-14T09:26:29Z</time>
      </trkpt>
      <trkpt lat="49.32703" lon="1.02075">
        <ele>94</ele>
        <time>2014-07-14T09:26:34Z</time>
      </trkpt>
      <trkpt lat="49.32715" lon="1.0209">
        <ele>95</ele>
        <time>2014-07-14T09:26:37Z</time>
      </trkpt>
      <trkpt lat="49.32723" lon="1.0211">
        <ele>96</ele>
        <time>2014-07-14T09:26:40Z</time>
      </trkpt>
      <trkpt lat="49.3273" lon="1.02133">
        <ele>96</ele>
        <time>2014-07-14T09:26:43Z</time>
      </trkpt>
      <trkpt lat="49.32735" lon="1.0216">
        <ele>95</ele>
        <time>2014-07-14T09:26:46Z</time>
      </trkpt>
      <trkpt lat="49.32738" lon="1.022">
        <ele>95</ele>
        <time>2014-07-14T09:26:50Z</time>
      </trkpt>
      <trkpt lat="49.3274" lon="1.02235">
        <ele>96</ele>
        <time>2014-07-14T09:26:55Z</time>
      </trkpt>
      <trkpt lat="49.3274" lon="1.02268">
        <ele>96</ele>
        <time>2014-07-14T09:27:00Z</time>
      </trkpt>
      <trkpt lat="49.32728" lon="1.02285">
        <ele>96</ele>
        <time>2014-07-14T09:27:05Z</time>
      </trkpt>
      <trkpt lat="49.32715" lon="1.02298">
        <ele>96</ele>
        <time>2014-07-14T09:27:08Z</time>
      </trkpt>
      <trkpt lat="49.32695" lon="1.02313">
        <ele>95</ele>
        <time>2014-07-14T09:27:13Z</time>
      </trkpt>
      <trkpt lat="49.32703" lon="1.02333">
        <ele>96</ele>
        <time>2014-07-14T09:27:18Z</time>
      </trkpt>
      <trkpt lat="49.3271" lon="1.02358">
        <ele>94</ele>
        <time>2014-07-14T09:27:22Z</time>
      </trkpt>
      <trkpt lat="49.3272" lon="1.0238">
        <ele>94</ele>
        <time>2014-07-14T09:27:25Z</time>
      </trkpt>
      <trkpt lat="49.32728" lon="1.02403">
        <ele>93</ele>
        <time>2014-07-14T09:27:28Z</time>
      </trkpt>
      <trkpt lat="49.3273" lon="1.02425">
        <ele>93</ele>
        <time>2014-07-14T09:27:31Z</time>
      </trkpt>
      <trkpt lat="49.32733" lon="1.02448">
        <ele>94</ele>
        <time>2014-07-14T09:27:34Z</time>
      </trkpt>
      <trkpt lat="49.3273" lon="1.02473">
        <ele>92</ele>
        <time>2014-07-14T09:27:40Z</time>
      </trkpt>
      <trkpt lat="49.32735" lon="1.02498">
        <ele>94</ele>
        <time>2014-07-14T09:27:44Z</time>
      </trkpt>
      <trkpt lat="49.32738" lon="1.02525">
        <ele>95</ele>
        <time>2014-07-14T09:27:50Z</time>
      </trkpt>
      <trkpt lat="49.3274" lon="1.0255">
        <ele>93</ele>
        <time>2014-07-14T09:27:58Z</time>
      </trkpt>
      <trkpt lat="49.32745" lon="1.02575">
        <ele>91</ele>
        <time>2014-07-14T09:28:03Z</time>
      </trkpt>
      <trkpt lat="49.32743" lon="1.02603">
        <ele>73</ele>
        <time>2014-07-14T09:31:00Z</time>
      </trkpt>
      <trkpt lat="49.32748" lon="1.0263">
        <ele>73</ele>
        <time>2014-07-14T09:31:04Z</time>
      </trkpt>
      <trkpt lat="49.32753" lon="1.02665">
        <ele>73</ele>
        <time>2014-07-14T09:31:09Z</time>
      </trkpt>
      <trkpt lat="49.32753" lon="1.02688">
        <ele>74</ele>
        <time>2014-07-14T09:31:14Z</time>
      </trkpt>
      <trkpt lat="49.32738" lon="1.02688">
        <ele>75</ele>
        <time>2014-07-14T09:31:32Z</time>
      </trkpt>
      <trkpt lat="49.32723" lon="1.02685">
        <ele>73</ele>
        <time>2014-07-14T09:31:39Z</time>
      </trkpt>
      <trkpt lat="49.32705" lon="1.02693">
        <ele>72</ele>
        <time>2014-07-14T09:31:47Z</time>
      </trkpt>
      <trkpt lat="49.32688" lon="1.02695">
        <ele>70</ele>
        <time>2014-07-14T09:31:50Z</time>
      </trkpt>
      <trkpt lat="49.32673" lon="1.02705">
        <ele>70</ele>
        <time>2014-07-14T09:31:54Z</time>
      </trkpt>
      <trkpt lat="49.32655" lon="1.02705">
        <ele>69</ele>
        <time>2014-07-14T09:31:57Z</time>
      </trkpt>
      <trkpt lat="49.32645" lon="1.02723">
        <ele>68</ele>
        <time>2014-07-14T09:32:03Z</time>
      </trkpt>
      <trkpt lat="49.32633" lon="1.02733">
        <ele>69</ele>
        <time>2014-07-14T09:32:07Z</time>
      </trkpt>
      <trkpt lat="49.32615" lon="1.02743">
        <ele>68</ele>
        <time>2014-07-14T09:32:13Z</time>
      </trkpt>
      <trkpt lat="49.3261" lon="1.02768">
        <ele>66</ele>
        <time>2014-07-14T09:32:21Z</time>
      </trkpt>
      <trkpt lat="49.32598" lon="1.0278">
        <ele>65</ele>
        <time>2014-07-14T09:32:26Z</time>
      </trkpt>
      <trkpt lat="49.32588" lon="1.028">
        <ele>65</ele>
        <time>2014-07-14T09:32:31Z</time>
      </trkpt>
      <trkpt lat="49.32575" lon="1.02815">
        <ele>65</ele>
        <time>2014-07-14T09:32:36Z</time>
      </trkpt>
      <trkpt lat="49.32588" lon="1.02828">
        <ele>71</ele>
        <time>2014-07-14T09:33:32Z</time>
      </trkpt>
      <trkpt lat="49.32593" lon="1.02848">
        <ele>64</ele>
        <time>2014-07-14T09:34:04Z</time>
      </trkpt>
      <trkpt lat="49.32593" lon="1.0287">
        <ele>65</ele>
        <time>2014-07-14T09:34:10Z</time>
      </trkpt>
      <trkpt lat="49.32598" lon="1.02893">
        <ele>64</ele>
        <time>2014-07-14T09:34:17Z</time>
      </trkpt>
      <trkpt lat="49.32605" lon="1.0291">
        <ele>65</ele>
        <time>2014-07-14T09:34:22Z</time>
      </trkpt>
      <trkpt lat="49.32615" lon="1.02925">
        <ele>65</ele>
        <time>2014-07-14T09:34:29Z</time>
      </trkpt>
      <trkpt lat="49.3263" lon="1.0295">
        <ele>65</ele>
        <time>2014-07-14T09:34:36Z</time>
      </trkpt>
      <trkpt lat="49.32645" lon="1.02965">
        <ele>64</ele>
        <time>2014-07-14T09:34:41Z</time>
      </trkpt>
      <trkpt lat="49.3266" lon="1.02973">
        <ele>64</ele>
        <time>2014-07-14T09:34:47Z</time>
      </trkpt>
      <trkpt lat="49.32675" lon="1.0298">
        <ele>62</ele>
        <time>2014-07-14T09:34:53Z</time>
      </trkpt>
      <trkpt lat="49.3269" lon="1.02995">
        <ele>61</ele>
        <time>2014-07-14T09:34:57Z</time>
      </trkpt>
      <trkpt lat="49.32703" lon="1.03008">
        <ele>60</ele>
        <time>2014-07-14T09:35:03Z</time>
      </trkpt>
      <trkpt lat="49.32718" lon="1.0301">
        <ele>61</ele>
        <time>2014-07-14T09:35:10Z</time>
      </trkpt>
      <trkpt lat="49.32728" lon="1.02995">
        <ele>89</ele>
        <time>2014-07-14T09:37:54Z</time>
      </trkpt>
      <trkpt lat="49.3273" lon="1.02973">
        <ele>90</ele>
        <time>2014-07-14T09:38:04Z</time>
      </trkpt>
      <trkpt lat="49.32743" lon="1.02983">
        <ele>96</ele>
        <time>2014-07-14T09:39:32Z</time>
      </trkpt>
      <trkpt lat="49.32755" lon="1.02998">
        <ele>96</ele>
        <time>2014-07-14T09:39:39Z</time>
      </trkpt>
      <trkpt lat="49.32765" lon="1.03015">
        <ele>97</ele>
        <time>2014-07-14T09:39:48Z</time>
      </trkpt>
      <trkpt lat="49.3277" lon="1.03038">
        <ele>97</ele>
        <time>2014-07-14T09:39:57Z</time>
      </trkpt>
      <trkpt lat="49.32763" lon="1.03055">
        <ele>107</ele>
        <time>2014-07-14T09:42:37Z</time>
      </trkpt>
      <trkpt lat="49.32778" lon="1.0306">
        <ele>107</ele>
        <time>2014-07-14T09:42:59Z</time>
      </trkpt>
      <trkpt lat="49.32775" lon="1.03083">
        <ele>108</ele>
        <time>2014-07-14T09:43:07Z</time>
      </trkpt>
      <trkpt lat="49.32785" lon="1.03098">
        <ele>114</ele>
        <time>2014-07-14T09:44:46Z</time>
      </trkpt>
      <trkpt lat="49.32798" lon="1.03088">
        <ele>114</ele>
        <time>2014-07-14T09:44:53Z</time>
      </trkpt>
      <trkpt lat="49.32803" lon="1.03108">
        <ele>115</ele>
        <time>2014-07-14T09:46:17Z</time>
      </trkpt>
      <trkpt lat="49.32813" lon="1.03125">
        <ele>115</ele>
        <time>2014-07-14T09:46:23Z</time>
      </trkpt>
      <trkpt lat="49.32825" lon="1.03138">
        <ele>115</ele>
        <time>2014-07-14T09:46:27Z</time>
      </trkpt>
      <trkpt lat="49.32835" lon="1.03153">
        <ele>115</ele>
        <time>2014-07-14T09:46:31Z</time>
      </trkpt>
      <trkpt lat="49.32845" lon="1.03168">
        <ele>115</ele>
        <time>2014-07-14T09:46:35Z</time>
      </trkpt>
      <trkpt lat="49.32853" lon="1.03188">
        <ele>115</ele>
        <time>2014-07-14T09:46:39Z</time>
      </trkpt>
      <trkpt lat="49.3286" lon="1.03208">
        <ele>116</ele>
        <time>2014-07-14T09:46:43Z</time>
      </trkpt>
      <trkpt lat="49.32863" lon="1.03233">
        <ele>115</ele>
        <time>2014-07-14T09:46:49Z</time>
      </trkpt>
      <trkpt lat="49.32863" lon="1.03255">
        <ele>115</ele>
        <time>2014-07-14T09:46:54Z</time>
      </trkpt>
      <trkpt lat="49.32863" lon="1.0328">
        <ele>115</ele>
        <time>2014-07-14T09:47:01Z</time>
      </trkpt>
      <trkpt lat="49.3286" lon="1.03303">
        <ele>115</ele>
        <time>2014-07-14T09:47:05Z</time>
      </trkpt>
      <trkpt lat="49.32858" lon="1.03328">
        <ele>116</ele>
        <time>2014-07-14T09:47:11Z</time>
      </trkpt>
      <trkpt lat="49.32853" lon="1.0335">
        <ele>115</ele>
        <time>2014-07-14T09:47:17Z</time>
      </trkpt>
      <trkpt lat="49.32845" lon="1.0337">
        <ele>116</ele>
        <time>2014-07-14T09:47:22Z</time>
      </trkpt>
      <trkpt lat="49.3284" lon="1.0339">
        <ele>117</ele>
        <time>2014-07-14T09:47:26Z</time>
      </trkpt>
      <trkpt lat="49.32848" lon="1.03413">
        <ele>121</ele>
        <time>2014-07-14T09:48:57Z</time>
      </trkpt>
      <trkpt lat="49.32868" lon="1.03475">
        <ele>121</ele>
        <time>2014-07-14T09:49:04Z</time>
      </trkpt>
      <trkpt lat="49.32875" lon="1.03503">
        <ele>121</ele>
        <time>2014-07-14T09:49:08Z</time>
      </trkpt>
      <trkpt lat="49.3288" lon="1.03523">
        <ele>121</ele>
        <time>2014-07-14T09:49:13Z</time>
      </trkpt>
      <trkpt lat="49.32878" lon="1.03548">
        <ele>121</ele>
        <time>2014-07-14T09:49:17Z</time>
      </trkpt>
      <trkpt lat="49.32873" lon="1.03573">
        <ele>121</ele>
        <time>2014-07-14T09:49:21Z</time>
      </trkpt>
      <trkpt lat="49.3287" lon="1.03598">
        <ele>121</ele>
        <time>2014-07-14T09:49:25Z</time>
      </trkpt>
      <trkpt lat="49.32863" lon="1.03618">
        <ele>123</ele>
        <time>2014-07-14T09:49:30Z</time>
      </trkpt>
      <trkpt lat="49.32878" lon="1.0362">
        <ele>120</ele>
        <time>2014-07-14T09:51:02Z</time>
      </trkpt>
      <trkpt lat="49.3289" lon="1.0361">
        <ele>122</ele>
        <time>2014-07-14T09:51:08Z</time>
      </trkpt>
      <trkpt lat="49.32905" lon="1.0362">
        <ele>122</ele>
        <time>2014-07-14T09:51:16Z</time>
      </trkpt>
      <trkpt lat="49.32923" lon="1.03638">
        <ele>123</ele>
        <time>2014-07-14T09:51:23Z</time>
      </trkpt>
      <trkpt lat="49.32938" lon="1.03645">
        <ele>123</ele>
        <time>2014-07-14T09:51:28Z</time>
      </trkpt>
      <trkpt lat="49.32953" lon="1.03648">
        <ele>122</ele>
        <time>2014-07-14T09:51:34Z</time>
      </trkpt>
      <trkpt lat="49.32958" lon="1.03668">
        <ele>123</ele>
        <time>2014-07-14T09:51:42Z</time>
      </trkpt>
      <trkpt lat="49.32965" lon="1.03685">
        <ele>124</ele>
        <time>2014-07-14T09:51:47Z</time>
      </trkpt>
      <trkpt lat="49.32963" lon="1.03713">
        <ele>126</ele>
        <time>2014-07-14T09:51:52Z</time>
      </trkpt>
      <trkpt lat="49.32965" lon="1.03738">
        <ele>126</ele>
        <time>2014-07-14T09:51:57Z</time>
      </trkpt>
      <trkpt lat="49.3297" lon="1.03758">
        <ele>125</ele>
        <time>2014-07-14T09:52:01Z</time>
      </trkpt>
      <trkpt lat="49.32973" lon="1.03783">
        <ele>125</ele>
        <time>2014-07-14T09:52:07Z</time>
      </trkpt>
      <trkpt lat="49.32973" lon="1.03805">
        <ele>124</ele>
        <time>2014-07-14T09:52:12Z</time>
      </trkpt>
      <trkpt lat="49.32968" lon="1.03825">
        <ele>124</ele>
        <time>2014-07-14T09:52:18Z</time>
      </trkpt>
      <trkpt lat="49.3297" lon="1.03848">
        <ele>124</ele>
        <time>2014-07-14T09:52:27Z</time>
      </trkpt>
      <trkpt lat="49.32965" lon="1.0387">
        <ele>125</ele>
        <time>2014-07-14T09:52:52Z</time>
      </trkpt>
      <trkpt lat="49.32963" lon="1.03893">
        <ele>125</ele>
        <time>2014-07-14T09:53:02Z</time>
      </trkpt>
      <trkpt lat="49.3296" lon="1.03923">
        <ele>126</ele>
        <time>2014-07-14T09:53:09Z</time>
      </trkpt>
      <trkpt lat="49.32955" lon="1.03943">
        <ele>125</ele>
        <time>2014-07-14T09:53:13Z</time>
      </trkpt>
      <trkpt lat="49.32953" lon="1.0398">
        <ele>126</ele>
        <time>2014-07-14T09:53:20Z</time>
      </trkpt>
      <trkpt lat="49.32948" lon="1.04">
        <ele>127</ele>
        <time>2014-07-14T09:53:23Z</time>
      </trkpt>
      <trkpt lat="49.32943" lon="1.0402">
        <ele>126</ele>
        <time>2014-07-14T09:53:26Z</time>
      </trkpt>
      <trkpt lat="49.32935" lon="1.04045">
        <ele>126</ele>
        <time>2014-07-14T09:53:30Z</time>
      </trkpt>
      <trkpt lat="49.32925" lon="1.04068">
        <ele>126</ele>
        <time>2014-07-14T09:53:33Z</time>
      </trkpt>
      <trkpt lat="49.32908" lon="1.04078">
        <ele>126</ele>
        <time>2014-07-14T09:53:37Z</time>
      </trkpt>
      <trkpt lat="49.32873" lon="1.04098">
        <ele>125</ele>
        <time>2014-07-14T09:53:44Z</time>
      </trkpt>
      <trkpt lat="49.32855" lon="1.04105">
        <ele>123</ele>
        <time>2014-07-14T09:53:47Z</time>
      </trkpt>
      <trkpt lat="49.32835" lon="1.04115">
        <ele>123</ele>
        <time>2014-07-14T09:53:50Z</time>
      </trkpt>
      <trkpt lat="49.3282" lon="1.04128">
        <ele>123</ele>
        <time>2014-07-14T09:53:53Z</time>
      </trkpt>
      <trkpt lat="49.32813" lon="1.04145">
        <ele>123</ele>
        <time>2014-07-14T09:53:56Z</time>
      </trkpt>
      <trkpt lat="49.32815" lon="1.0417">
        <ele>119</ele>
        <time>2014-07-14T09:54:48Z</time>
      </trkpt>
      <trkpt lat="49.32815" lon="1.04195">
        <ele>118</ele>
        <time>2014-07-14T09:54:52Z</time>
      </trkpt>
      <trkpt lat="49.32813" lon="1.0422">
        <ele>118</ele>
        <time>2014-07-14T09:54:56Z</time>
      </trkpt>
      <trkpt lat="49.32815" lon="1.04245">
        <ele>118</ele>
        <time>2014-07-14T09:55:00Z</time>
      </trkpt>
      <trkpt lat="49.32823" lon="1.04263">
        <ele>118</ele>
        <time>2014-07-14T09:55:02Z</time>
      </trkpt>
      <trkpt lat="49.32828" lon="1.04295">
        <ele>118</ele>
        <time>2014-07-14T09:55:05Z</time>
      </trkpt>
      <trkpt lat="49.32833" lon="1.04315">
        <ele>118</ele>
        <time>2014-07-14T09:55:08Z</time>
      </trkpt>
      <trkpt lat="49.32833" lon="1.04345">
        <ele>118</ele>
        <time>2014-07-14T09:55:12Z</time>
      </trkpt>
      <trkpt lat="49.32838" lon="1.04365">
        <ele>119</ele>
        <time>2014-07-14T09:55:15Z</time>
      </trkpt>
      <trkpt lat="49.32838" lon="1.0439">
        <ele>119</ele>
        <time>2014-07-14T09:55:20Z</time>
      </trkpt>
      <trkpt lat="49.32838" lon="1.04418">
        <ele>118</ele>
        <time>2014-07-14T09:55:24Z</time>
      </trkpt>
      <trkpt lat="49.32833" lon="1.04445">
        <ele>118</ele>
        <time>2014-07-14T09:55:27Z</time>
      </trkpt>
      <trkpt lat="49.32835" lon="1.0447">
        <ele>117</ele>
        <time>2014-07-14T09:55:30Z</time>
      </trkpt>
      <trkpt lat="49.32843" lon="1.045">
        <ele>116</ele>
        <time>2014-07-14T09:55:34Z</time>
      </trkpt>
      <trkpt lat="49.32843" lon="1.04525">
        <ele>115</ele>
        <time>2014-07-14T09:55:38Z</time>
      </trkpt>
      <trkpt lat="49.32843" lon="1.04548">
        <ele>114</ele>
        <time>2014-07-14T09:55:41Z</time>
      </trkpt>
      <trkpt lat="49.32853" lon="1.0457">
        <ele>113</ele>
        <time>2014-07-14T09:55:44Z</time>
      </trkpt>
      <trkpt lat="49.32858" lon="1.04595">
        <ele>113</ele>
        <time>2014-07-14T09:55:47Z</time>
      </trkpt>
      <trkpt lat="49.32863" lon="1.04615">
        <ele>112</ele>
        <time>2014-07-14T09:55:50Z</time>
      </trkpt>
      <trkpt lat="49.32873" lon="1.04633">
        <ele>111</ele>
        <time>2014-07-14T09:55:54Z</time>
      </trkpt>
      <trkpt lat="49.32885" lon="1.0465">
        <ele>110</ele>
        <time>2014-07-14T09:55:58Z</time>
      </trkpt>
      <trkpt lat="49.3289" lon="1.0467">
        <ele>110</ele>
        <time>2014-07-14T09:56:02Z</time>
      </trkpt>
      <trkpt lat="49.3289" lon="1.04695">
        <ele>112</ele>
        <time>2014-07-14T09:56:52Z</time>
      </trkpt>
      <trkpt lat="49.32895" lon="1.04723">
        <ele>111</ele>
        <time>2014-07-14T09:56:55Z</time>
      </trkpt>
      <trkpt lat="49.32903" lon="1.04743">
        <ele>111</ele>
        <time>2014-07-14T09:56:57Z</time>
      </trkpt>
      <trkpt lat="49.3291" lon="1.04763">
        <ele>111</ele>
        <time>2014-07-14T09:57:00Z</time>
      </trkpt>
      <trkpt lat="49.32918" lon="1.04783">
        <ele>111</ele>
        <time>2014-07-14T09:57:03Z</time>
      </trkpt>
      <trkpt lat="49.32923" lon="1.0481">
        <ele>111</ele>
        <time>2014-07-14T09:57:06Z</time>
      </trkpt>
      <trkpt lat="49.32928" lon="1.04838">
        <ele>110</ele>
        <time>2014-07-14T09:57:09Z</time>
      </trkpt>
      <trkpt lat="49.32938" lon="1.04885">
        <ele>110</ele>
        <time>2014-07-14T09:57:14Z</time>
      </trkpt>
      <trkpt lat="49.32943" lon="1.04908">
        <ele>110</ele>
        <time>2014-07-14T09:57:17Z</time>
      </trkpt>
      <trkpt lat="49.3295" lon="1.0493">
        <ele>110</ele>
        <time>2014-07-14T09:57:20Z</time>
      </trkpt>
      <trkpt lat="49.32953" lon="1.04953">
        <ele>109</ele>
        <time>2014-07-14T09:57:23Z</time>
      </trkpt>
      <trkpt lat="49.32963" lon="1.0498">
        <ele>109</ele>
        <time>2014-07-14T09:57:26Z</time>
      </trkpt>
      <trkpt lat="49.32968" lon="1.05013">
        <ele>108</ele>
        <time>2014-07-14T09:57:29Z</time>
      </trkpt>
      <trkpt lat="49.32973" lon="1.05038">
        <ele>106</ele>
        <time>2014-07-14T09:57:32Z</time>
      </trkpt>
      <trkpt lat="49.32978" lon="1.05065">
        <ele>106</ele>
        <time>2014-07-14T09:57:35Z</time>
      </trkpt>
      <trkpt lat="49.32985" lon="1.0509">
        <ele>105</ele>
        <time>2014-07-14T09:57:38Z</time>
      </trkpt>
      <trkpt lat="49.3299" lon="1.0512">
        <ele>103</ele>
        <time>2014-07-14T09:57:41Z</time>
      </trkpt>
      <trkpt lat="49.32995" lon="1.05143">
        <ele>104</ele>
        <time>2014-07-14T09:57:43Z</time>
      </trkpt>
      <trkpt lat="49.32998" lon="1.05175">
        <ele>104</ele>
        <time>2014-07-14T09:57:46Z</time>
      </trkpt>
      <trkpt lat="49.33" lon="1.05205">
        <ele>103</ele>
        <time>2014-07-14T09:57:49Z</time>
      </trkpt>
      <trkpt lat="49.33003" lon="1.05238">
        <ele>99</ele>
        <time>2014-07-14T09:57:52Z</time>
      </trkpt>
      <trkpt lat="49.33003" lon="1.05283">
        <ele>97</ele>
        <time>2014-07-14T09:57:56Z</time>
      </trkpt>
      <trkpt lat="49.33" lon="1.0534">
        <ele>90</ele>
        <time>2014-07-14T09:58:01Z</time>
      </trkpt>
      <trkpt lat="49.32998" lon="1.05375">
        <ele>87</ele>
        <time>2014-07-14T09:58:05Z</time>
      </trkpt>
      <trkpt lat="49.33008" lon="1.0539">
        <ele>84</ele>
        <time>2014-07-14T09:58:16Z</time>
      </trkpt>
      <trkpt lat="49.33023" lon="1.05403">
        <ele>80</ele>
        <time>2014-07-14T09:58:45Z</time>
      </trkpt>
      <trkpt lat="49.3303" lon="1.05385">
        <ele>83</ele>
        <time>2014-07-14T09:59:15Z</time>
      </trkpt>
      <trkpt lat="49.33038" lon="1.05368">
        <ele>83</ele>
        <time>2014-07-14T09:59:24Z</time>
      </trkpt>
      <trkpt lat="49.3305" lon="1.05355">
        <ele>83</ele>
        <time>2014-07-14T09:59:34Z</time>
      </trkpt>
      <trkpt lat="49.33045" lon="1.05375">
        <ele>85</ele>
        <time>2014-07-14T10:00:31Z</time>
      </trkpt>
      <trkpt lat="49.33053" lon="1.05393">
        <ele>83</ele>
        <time>2014-07-14T10:00:53Z</time>
      </trkpt>
      <trkpt lat="49.33063" lon="1.05413">
        <ele>83</ele>
        <time>2014-07-14T10:01:00Z</time>
      </trkpt>
      <trkpt lat="49.33073" lon="1.05428">
        <ele>88</ele>
        <time>2014-07-14T10:01:51Z</time>
      </trkpt>
      <trkpt lat="49.33088" lon="1.05425">
        <ele>88</ele>
        <time>2014-07-14T10:01:58Z</time>
      </trkpt>
      <trkpt lat="49.33098" lon="1.0544">
        <ele>88</ele>
        <time>2014-07-14T10:02:04Z</time>
      </trkpt>
      <trkpt lat="49.33108" lon="1.05458">
        <ele>89</ele>
        <time>2014-07-14T10:02:10Z</time>
      </trkpt>
      <trkpt lat="49.3312" lon="1.05473">
        <ele>89</ele>
        <time>2014-07-14T10:02:15Z</time>
      </trkpt>
      <trkpt lat="49.3313" lon="1.05488">
        <ele>88</ele>
        <time>2014-07-14T10:02:22Z</time>
      </trkpt>
      <trkpt lat="49.33143" lon="1.055">
        <ele>88</ele>
        <time>2014-07-14T10:02:29Z</time>
      </trkpt>
      <trkpt lat="49.33145" lon="1.05478">
        <ele>90</ele>
        <time>2014-07-14T10:03:50Z</time>
      </trkpt>
      <trkpt lat="49.33135" lon="1.0546">
        <ele>91</ele>
        <time>2014-07-14T10:03:56Z</time>
      </trkpt>
      <trkpt lat="49.33128" lon="1.05443">
        <ele>92</ele>
        <time>2014-07-14T10:04:02Z</time>
      </trkpt>
      <trkpt lat="49.33118" lon="1.05425">
        <ele>94</ele>
        <time>2014-07-14T10:04:10Z</time>
      </trkpt>
      <trkpt lat="49.33125" lon="1.05408">
        <ele>96</ele>
        <time>2014-07-14T10:04:20Z</time>
      </trkpt>
      <trkpt lat="49.3314" lon="1.05413">
        <ele>97</ele>
        <time>2014-07-14T10:04:28Z</time>
      </trkpt>
      <trkpt lat="49.33155" lon="1.0542">
        <ele>99</ele>
        <time>2014-07-14T10:04:37Z</time>
      </trkpt>
      <trkpt lat="49.33165" lon="1.05438">
        <ele>99</ele>
        <time>2014-07-14T10:04:43Z</time>
      </trkpt>
      <trkpt lat="49.33178" lon="1.0545">
        <ele>99</ele>
        <time>2014-07-14T10:04:49Z</time>
      </trkpt>
      <trkpt lat="49.33193" lon="1.05463">
        <ele>101</ele>
        <time>2014-07-14T10:04:56Z</time>
      </trkpt>
      <trkpt lat="49.33208" lon="1.0546">
        <ele>102</ele>
        <time>2014-07-14T10:05:05Z</time>
      </trkpt>
      <trkpt lat="49.33223" lon="1.05455">
        <ele>104</ele>
        <time>2014-07-14T10:05:13Z</time>
      </trkpt>
      <trkpt lat="49.33238" lon="1.05445">
        <ele>105</ele>
        <time>2014-07-14T10:05:17Z</time>
      </trkpt>
      <trkpt lat="49.3325" lon="1.05435">
        <ele>106</ele>
        <time>2014-07-14T10:05:22Z</time>
      </trkpt>
      <trkpt lat="49.33263" lon="1.05445">
        <ele>106</ele>
        <time>2014-07-14T10:05:31Z</time>
      </trkpt>
      <trkpt lat="49.33275" lon="1.05455">
        <ele>109</ele>
        <time>2014-07-14T10:09:05Z</time>
      </trkpt>
      <trkpt lat="49.33288" lon="1.0547">
        <ele>109</ele>
        <time>2014-07-14T10:09:12Z</time>
      </trkpt>
      <trkpt lat="49.33303" lon="1.05478">
        <ele>110</ele>
        <time>2014-07-14T10:09:19Z</time>
      </trkpt>
      <trkpt lat="49.33318" lon="1.05485">
        <ele>110</ele>
        <time>2014-07-14T10:09:25Z</time>
      </trkpt>
      <trkpt lat="49.3333" lon="1.05473">
        <ele>111</ele>
        <time>2014-07-14T10:09:30Z</time>
      </trkpt>
      <trkpt lat="49.33345" lon="1.05465">
        <ele>111</ele>
        <time>2014-07-14T10:09:36Z</time>
      </trkpt>
      <trkpt lat="49.33353" lon="1.05448">
        <ele>112</ele>
        <time>2014-07-14T10:09:42Z</time>
      </trkpt>
      <trkpt lat="49.33365" lon="1.05433">
        <ele>112</ele>
        <time>2014-07-14T10:09:48Z</time>
      </trkpt>
      <trkpt lat="49.3337" lon="1.05413">
        <ele>111</ele>
        <time>2014-07-14T10:09:53Z</time>
      </trkpt>
      <trkpt lat="49.3338" lon="1.05395">
        <ele>113</ele>
        <time>2014-07-14T10:09:58Z</time>
      </trkpt>
      <trkpt lat="49.3339" lon="1.0538">
        <ele>114</ele>
        <time>2014-07-14T10:10:04Z</time>
      </trkpt>
      <trkpt lat="49.33405" lon="1.05388">
        <ele>124</ele>
        <time>2014-07-14T10:11:01Z</time>
      </trkpt>
      <trkpt lat="49.3342" lon="1.05395">
        <ele>125</ele>
        <time>2014-07-14T10:11:08Z</time>
      </trkpt>
      <trkpt lat="49.3343" lon="1.05415">
        <ele>125</ele>
        <time>2014-07-14T10:11:13Z</time>
      </trkpt>
      <trkpt lat="49.33438" lon="1.05433">
        <ele>125</ele>
        <time>2014-07-14T10:11:16Z</time>
      </trkpt>
      <trkpt lat="49.33453" lon="1.0544">
        <ele>126</ele>
        <time>2014-07-14T10:11:19Z</time>
      </trkpt>
      <trkpt lat="49.3347" lon="1.05445">
        <ele>126</ele>
        <time>2014-07-14T10:11:22Z</time>
      </trkpt>
      <trkpt lat="49.33485" lon="1.05463">
        <ele>127</ele>
        <time>2014-07-14T10:11:25Z</time>
      </trkpt>
      <trkpt lat="49.33498" lon="1.05473">
        <ele>126</ele>
        <time>2014-07-14T10:11:28Z</time>
      </trkpt>
      <trkpt lat="49.33513" lon="1.05478">
        <ele>127</ele>
        <time>2014-07-14T10:11:31Z</time>
      </trkpt>
      <trkpt lat="49.33528" lon="1.0547">
        <ele>126</ele>
        <time>2014-07-14T10:11:34Z</time>
      </trkpt>
      <trkpt lat="49.33545" lon="1.05458">
        <ele>127</ele>
        <time>2014-07-14T10:11:37Z</time>
      </trkpt>
      <trkpt lat="49.3356" lon="1.05448">
        <ele>127</ele>
        <time>2014-07-14T10:11:40Z</time>
      </trkpt>
      <trkpt lat="49.33575" lon="1.0544">
        <ele>127</ele>
        <time>2014-07-14T10:11:43Z</time>
      </trkpt>
      <trkpt lat="49.336" lon="1.05425">
        <ele>127</ele>
        <time>2014-07-14T10:11:49Z</time>
      </trkpt>
      <trkpt lat="49.33615" lon="1.05418">
        <ele>126</ele>
        <time>2014-07-14T10:11:52Z</time>
      </trkpt>
      <trkpt lat="49.3363" lon="1.05428">
        <ele>124</ele>
        <time>2014-07-14T10:11:58Z</time>
      </trkpt>
      <trkpt lat="49.33643" lon="1.05445">
        <ele>122</ele>
        <time>2014-07-14T10:12:02Z</time>
      </trkpt>
      <trkpt lat="49.33655" lon="1.05465">
        <ele>121</ele>
        <time>2014-07-14T10:12:05Z</time>
      </trkpt>
      <trkpt lat="49.33675" lon="1.05498">
        <ele>119</ele>
        <time>2014-07-14T10:12:09Z</time>
      </trkpt>
      <trkpt lat="49.33695" lon="1.05528">
        <ele>119</ele>
        <time>2014-07-14T10:12:13Z</time>
      </trkpt>
      <trkpt lat="49.3379" lon="1.05673">
        <ele>111</ele>
        <time>2014-07-14T10:12:31Z</time>
      </trkpt>
      <trkpt lat="49.33838" lon="1.0575">
        <ele>109</ele>
        <time>2014-07-14T10:12:41Z</time>
      </trkpt>
      <trkpt lat="49.33855" lon="1.05783">
        <ele>107</ele>
        <time>2014-07-14T10:12:49Z</time>
      </trkpt>
      <trkpt lat="49.33868" lon="1.05798">
        <ele>107</ele>
        <time>2014-07-14T10:12:52Z</time>
      </trkpt>
      <trkpt lat="49.33883" lon="1.05803">
        <ele>106</ele>
        <time>2014-07-14T10:12:55Z</time>
      </trkpt>
      <trkpt lat="49.33903" lon="1.05795">
        <ele>105</ele>
        <time>2014-07-14T10:12:58Z</time>
      </trkpt>
      <trkpt lat="49.3392" lon="1.05785">
        <ele>104</ele>
        <time>2014-07-14T10:13:01Z</time>
      </trkpt>
      <trkpt lat="49.33958" lon="1.05765">
        <ele>103</ele>
        <time>2014-07-14T10:13:07Z</time>
      </trkpt>
      <trkpt lat="49.3397" lon="1.05753">
        <ele>102</ele>
        <time>2014-07-14T10:13:09Z</time>
      </trkpt>
      <trkpt lat="49.33983" lon="1.05738">
        <ele>101</ele>
        <time>2014-07-14T10:13:11Z</time>
      </trkpt>
      <trkpt lat="49.33993" lon="1.0572">
        <ele>99</ele>
        <time>2014-07-14T10:13:13Z</time>
      </trkpt>
      <trkpt lat="49.34003" lon="1.05705">
        <ele>98</ele>
        <time>2014-07-14T10:13:15Z</time>
      </trkpt>
      <trkpt lat="49.34015" lon="1.0569">
        <ele>96</ele>
        <time>2014-07-14T10:13:18Z</time>
      </trkpt>
      <trkpt lat="49.3403" lon="1.05695">
        <ele>93</ele>
        <time>2014-07-14T10:13:22Z</time>
      </trkpt>
      <trkpt lat="49.34038" lon="1.05718">
        <ele>91</ele>
        <time>2014-07-14T10:13:26Z</time>
      </trkpt>
      <trkpt lat="49.34048" lon="1.05755">
        <ele>90</ele>
        <time>2014-07-14T10:13:32Z</time>
      </trkpt>
      <trkpt lat="49.34058" lon="1.05783">
        <ele>88</ele>
        <time>2014-07-14T10:13:36Z</time>
      </trkpt>
      <trkpt lat="49.34063" lon="1.05813">
        <ele>86</ele>
        <time>2014-07-14T10:13:39Z</time>
      </trkpt>
      <trkpt lat="49.34065" lon="1.05848">
        <ele>84</ele>
        <time>2014-07-14T10:13:42Z</time>
      </trkpt>
      <trkpt lat="49.3407" lon="1.05888">
        <ele>83</ele>
        <time>2014-07-14T10:13:45Z</time>
      </trkpt>
      <trkpt lat="49.34083" lon="1.05908">
        <ele>81</ele>
        <time>2014-07-14T10:13:48Z</time>
      </trkpt>
      <trkpt lat="49.34098" lon="1.0591">
        <ele>79</ele>
        <time>2014-07-14T10:13:50Z</time>
      </trkpt>
      <trkpt lat="49.34118" lon="1.05908">
        <ele>78</ele>
        <time>2014-07-14T10:13:52Z</time>
      </trkpt>
      <trkpt lat="49.34138" lon="1.05903">
        <ele>76</ele>
        <time>2014-07-14T10:13:54Z</time>
      </trkpt>
      <trkpt lat="49.34155" lon="1.05895">
        <ele>74</ele>
        <time>2014-07-14T10:13:56Z</time>
      </trkpt>
      <trkpt lat="49.34178" lon="1.0588">
        <ele>72</ele>
        <time>2014-07-14T10:13:59Z</time>
      </trkpt>
      <trkpt lat="49.3419" lon="1.05868">
        <ele>71</ele>
        <time>2014-07-14T10:14:01Z</time>
      </trkpt>
      <trkpt lat="49.34188" lon="1.05843">
        <ele>68</ele>
        <time>2014-07-14T10:14:49Z</time>
      </trkpt>
      <trkpt lat="49.34183" lon="1.0582">
        <ele>67</ele>
        <time>2014-07-14T10:14:55Z</time>
      </trkpt>
      <trkpt lat="49.34178" lon="1.05785">
        <ele>67</ele>
        <time>2014-07-14T10:15:03Z</time>
      </trkpt>
      <trkpt lat="49.34173" lon="1.05753">
        <ele>67</ele>
        <time>2014-07-14T10:15:11Z</time>
      </trkpt>
      <trkpt lat="49.34173" lon="1.0573">
        <ele>68</ele>
        <time>2014-07-14T10:15:20Z</time>
      </trkpt>
      <trkpt lat="49.34185" lon="1.05743">
        <ele>69</ele>
        <time>2014-07-14T10:15:29Z</time>
      </trkpt>
      <trkpt lat="49.34198" lon="1.05753">
        <ele>70</ele>
        <time>2014-07-14T10:15:35Z</time>
      </trkpt>
      <trkpt lat="49.34215" lon="1.0576">
        <ele>70</ele>
        <time>2014-07-14T10:15:44Z</time>
      </trkpt>
      <trkpt lat="49.34228" lon="1.0577">
        <ele>72</ele>
        <time>2014-07-14T10:15:50Z</time>
      </trkpt>
      <trkpt lat="49.3424" lon="1.0578">
        <ele>74</ele>
        <time>2014-07-14T10:15:56Z</time>
      </trkpt>
      <trkpt lat="49.34258" lon="1.0579">
        <ele>76</ele>
        <time>2014-07-14T10:16:04Z</time>
      </trkpt>
      <trkpt lat="49.3427" lon="1.058">
        <ele>77</ele>
        <time>2014-07-14T10:17:01Z</time>
      </trkpt>
      <trkpt lat="49.34285" lon="1.05798">
        <ele>90</ele>
        <time>2014-07-14T10:18:59Z</time>
      </trkpt>
      <trkpt lat="49.3429" lon="1.05778">
        <ele>92</ele>
        <time>2014-07-14T10:19:53Z</time>
      </trkpt>
      <trkpt lat="49.34293" lon="1.05753">
        <ele>93</ele>
        <time>2014-07-14T10:19:59Z</time>
      </trkpt>
      <trkpt lat="49.34293" lon="1.0573">
        <ele>94</ele>
        <time>2014-07-14T10:20:06Z</time>
      </trkpt>
      <trkpt lat="49.34288" lon="1.05705">
        <ele>94</ele>
        <time>2014-07-14T10:20:13Z</time>
      </trkpt>
      <trkpt lat="49.34293" lon="1.05685">
        <ele>95</ele>
        <time>2014-07-14T10:20:19Z</time>
      </trkpt>
      <trkpt lat="49.34293" lon="1.05663">
        <ele>97</ele>
        <time>2014-07-14T10:20:30Z</time>
      </trkpt>
      <trkpt lat="49.3428" lon="1.05648">
        <ele>100</ele>
        <time>2014-07-14T10:20:51Z</time>
      </trkpt>
      <trkpt lat="49.34273" lon="1.05623">
        <ele>100</ele>
        <time>2014-07-14T10:20:55Z</time>
      </trkpt>
      <trkpt lat="49.34268" lon="1.056">
        <ele>100</ele>
        <time>2014-07-14T10:20:58Z</time>
      </trkpt>
      <trkpt lat="49.34263" lon="1.0558">
        <ele>100</ele>
        <time>2014-07-14T10:21:01Z</time>
      </trkpt>
      <trkpt lat="49.34258" lon="1.0556">
        <ele>101</ele>
        <time>2014-07-14T10:21:04Z</time>
      </trkpt>
      <trkpt lat="49.3425" lon="1.05543">
        <ele>101</ele>
        <time>2014-07-14T10:21:07Z</time>
      </trkpt>
      <trkpt lat="49.34238" lon="1.05523">
        <ele>102</ele>
        <time>2014-07-14T10:21:10Z</time>
      </trkpt>
      <trkpt lat="49.34225" lon="1.05503">
        <ele>103</ele>
        <time>2014-07-14T10:21:13Z</time>
      </trkpt>
      <trkpt lat="49.3421" lon="1.05488">
        <ele>103</ele>
        <time>2014-07-14T10:21:16Z</time>
      </trkpt>
      <trkpt lat="49.34198" lon="1.05468">
        <ele>102</ele>
        <time>2014-07-14T10:21:19Z</time>
      </trkpt>
      <trkpt lat="49.3419" lon="1.05443">
        <ele>103</ele>
        <time>2014-07-14T10:21:22Z</time>
      </trkpt>
      <trkpt lat="49.34188" lon="1.05418">
        <ele>104</ele>
        <time>2014-07-14T10:21:25Z</time>
      </trkpt>
      <trkpt lat="49.34178" lon="1.054">
        <ele>104</ele>
        <time>2014-07-14T10:21:28Z</time>
      </trkpt>
      <trkpt lat="49.34165" lon="1.05383">
        <ele>103</ele>
        <time>2014-07-14T10:21:31Z</time>
      </trkpt>
      <trkpt lat="49.34155" lon="1.05363">
        <ele>104</ele>
        <time>2014-07-14T10:21:34Z</time>
      </trkpt>
      <trkpt lat="49.34153" lon="1.0534">
        <ele>105</ele>
        <time>2014-07-14T10:21:37Z</time>
      </trkpt>
      <trkpt lat="49.3415" lon="1.0531">
        <ele>107</ele>
        <time>2014-07-14T10:21:41Z</time>
      </trkpt>
      <trkpt lat="49.34148" lon="1.0528">
        <ele>110</ele>
        <time>2014-07-14T10:21:46Z</time>
      </trkpt>
      <trkpt lat="49.34138" lon="1.05265">
        <ele>111</ele>
        <time>2014-07-14T10:21:51Z</time>
      </trkpt>
      <trkpt lat="49.34123" lon="1.05263">
        <ele>112</ele>
        <time>2014-07-14T10:21:57Z</time>
      </trkpt>
      <trkpt lat="49.34108" lon="1.05265">
        <ele>113</ele>
        <time>2014-07-14T10:22:03Z</time>
      </trkpt>
      <trkpt lat="49.34098" lon="1.0529">
        <ele>116</ele>
        <time>2014-07-14T10:23:20Z</time>
      </trkpt>
      <trkpt lat="49.34105" lon="1.05313">
        <ele>115</ele>
        <time>2014-07-14T10:23:25Z</time>
      </trkpt>
      <trkpt lat="49.34113" lon="1.0533">
        <ele>115</ele>
        <time>2014-07-14T10:23:28Z</time>
      </trkpt>
      <trkpt lat="49.34105" lon="1.0535">
        <ele>114</ele>
        <time>2014-07-14T10:23:32Z</time>
      </trkpt>
      <trkpt lat="49.34103" lon="1.05373">
        <ele>114</ele>
        <time>2014-07-14T10:23:35Z</time>
      </trkpt>
      <trkpt lat="49.34103" lon="1.05398">
        <ele>113</ele>
        <time>2014-07-14T10:23:38Z</time>
      </trkpt>
      <trkpt lat="49.34108" lon="1.05418">
        <ele>112</ele>
        <time>2014-07-14T10:23:48Z</time>
      </trkpt>
      <trkpt lat="49.34095" lon="1.0543">
        <ele>108</ele>
        <time>2014-07-14T10:24:06Z</time>
      </trkpt>
      <trkpt lat="49.34078" lon="1.0544">
        <ele>107</ele>
        <time>2014-07-14T10:24:11Z</time>
      </trkpt>
      <trkpt lat="49.3407" lon="1.05465">
        <ele>106</ele>
        <time>2014-07-14T10:24:14Z</time>
      </trkpt>
      <trkpt lat="49.34058" lon="1.05493">
        <ele>105</ele>
        <time>2014-07-14T10:24:17Z</time>
      </trkpt>
      <trkpt lat="49.34043" lon="1.05518">
        <ele>102</ele>
        <time>2014-07-14T10:24:21Z</time>
      </trkpt>
      <trkpt lat="49.3403" lon="1.05528">
        <ele>101</ele>
        <time>2014-07-14T10:24:25Z</time>
      </trkpt>
      <trkpt lat="49.34015" lon="1.05528">
        <ele>99</ele>
        <time>2014-07-14T10:24:31Z</time>
      </trkpt>
      <trkpt lat="49.33998" lon="1.05518">
        <ele>97</ele>
        <time>2014-07-14T10:24:37Z</time>
      </trkpt>
      <trkpt lat="49.33983" lon="1.05513">
        <ele>96</ele>
        <time>2014-07-14T10:24:41Z</time>
      </trkpt>
      <trkpt lat="49.33965" lon="1.05508">
        <ele>95</ele>
        <time>2014-07-14T10:24:46Z</time>
      </trkpt>
      <trkpt lat="49.3395" lon="1.05508">
        <ele>91</ele>
        <time>2014-07-14T10:24:52Z</time>
      </trkpt>
      <trkpt lat="49.33935" lon="1.055">
        <ele>91</ele>
        <time>2014-07-14T10:24:56Z</time>
      </trkpt>
      <trkpt lat="49.33915" lon="1.05488">
        <ele>90</ele>
        <time>2014-07-14T10:25:02Z</time>
      </trkpt>
      <trkpt lat="49.339" lon="1.05473">
        <ele>90</ele>
        <time>2014-07-14T10:25:06Z</time>
      </trkpt>
      <trkpt lat="49.33888" lon="1.05453">
        <ele>87</ele>
        <time>2014-07-14T10:25:10Z</time>
      </trkpt>
      <trkpt lat="49.33878" lon="1.05433">
        <ele>85</ele>
        <time>2014-07-14T10:25:14Z</time>
      </trkpt>
      <trkpt lat="49.3387" lon="1.05413">
        <ele>84</ele>
        <time>2014-07-14T10:25:17Z</time>
      </trkpt>
      <trkpt lat="49.33863" lon="1.05393">
        <ele>84</ele>
        <time>2014-07-14T10:25:20Z</time>
      </trkpt>
      <trkpt lat="49.33858" lon="1.05365">
        <ele>85</ele>
        <time>2014-07-14T10:25:24Z</time>
      </trkpt>
      <trkpt lat="49.3385" lon="1.05348">
        <ele>84</ele>
        <time>2014-07-14T10:25:32Z</time>
      </trkpt>
      <trkpt lat="49.33835" lon="1.05348">
        <ele>81</ele>
        <time>2014-07-14T10:25:42Z</time>
      </trkpt>
      <trkpt lat="49.3383" lon="1.05368">
        <ele>81</ele>
        <time>2014-07-14T10:25:50Z</time>
      </trkpt>
      <trkpt lat="49.33823" lon="1.05388">
        <ele>80</ele>
        <time>2014-07-14T10:26:14Z</time>
      </trkpt>
      <trkpt lat="49.3382" lon="1.0541">
        <ele>78</ele>
        <time>2014-07-14T10:26:20Z</time>
      </trkpt>
      <trkpt lat="49.3383" lon="1.05425">
        <ele>77</ele>
        <time>2014-07-14T10:26:25Z</time>
      </trkpt>
      <trkpt lat="49.3383" lon="1.0545">
        <ele>77</ele>
        <time>2014-07-14T10:26:32Z</time>
      </trkpt>
      <trkpt lat="49.33825" lon="1.05473">
        <ele>78</ele>
        <time>2014-07-14T10:26:39Z</time>
      </trkpt>
      <trkpt lat="49.33828" lon="1.05495">
        <ele>79</ele>
        <time>2014-07-14T10:26:45Z</time>
      </trkpt>
      <trkpt lat="49.33835" lon="1.05513">
        <ele>78</ele>
        <time>2014-07-14T10:26:51Z</time>
      </trkpt>
      <trkpt lat="49.33848" lon="1.05528">
        <ele>79</ele>
        <time>2014-07-14T10:26:56Z</time>
      </trkpt>
      <trkpt lat="49.33855" lon="1.05545">
        <ele>94</ele>
        <time>2014-07-14T10:27:35Z</time>
      </trkpt>
      <trkpt lat="49.3386" lon="1.05565">
        <ele>93</ele>
        <time>2014-07-14T10:27:41Z</time>
      </trkpt>
      <trkpt lat="49.33863" lon="1.05588">
        <ele>96</ele>
        <time>2014-07-14T10:27:47Z</time>
      </trkpt>
      <trkpt lat="49.33858" lon="1.05608">
        <ele>98</ele>
        <time>2014-07-14T10:28:22Z</time>
      </trkpt>
      <trkpt lat="49.33848" lon="1.05623">
        <ele>101</ele>
        <time>2014-07-14T10:28:52Z</time>
      </trkpt>
      <trkpt lat="49.33833" lon="1.05628">
        <ele>103</ele>
        <time>2014-07-14T10:30:46Z</time>
      </trkpt>
      <trkpt lat="49.3382" lon="1.05618">
        <ele>102</ele>
        <time>2014-07-14T10:30:52Z</time>
      </trkpt>
      <trkpt lat="49.33805" lon="1.05613">
        <ele>103</ele>
        <time>2014-07-14T10:30:57Z</time>
      </trkpt>
      <trkpt lat="49.3379" lon="1.05603">
        <ele>103</ele>
        <time>2014-07-14T10:31:03Z</time>
      </trkpt>
      <trkpt lat="49.33775" lon="1.05595">
        <ele>102</ele>
        <time>2014-07-14T10:31:10Z</time>
      </trkpt>
      <trkpt lat="49.33763" lon="1.05585">
        <ele>103</ele>
        <time>2014-07-14T10:31:19Z</time>
      </trkpt>
      <trkpt lat="49.33753" lon="1.0557">
        <ele>106</ele>
        <time>2014-07-14T10:31:36Z</time>
      </trkpt>
      <trkpt lat="49.3374" lon="1.0556">
        <ele>118</ele>
        <time>2014-07-14T10:32:43Z</time>
      </trkpt>
      <trkpt lat="49.3373" lon="1.05545">
        <ele>118</ele>
        <time>2014-07-14T10:32:48Z</time>
      </trkpt>
      <trkpt lat="49.33738" lon="1.05523">
        <ele>118</ele>
        <time>2014-07-14T10:32:54Z</time>
      </trkpt>
      <trkpt lat="49.33735" lon="1.055">
        <ele>118</ele>
        <time>2014-07-14T10:32:59Z</time>
      </trkpt>
      <trkpt lat="49.33728" lon="1.05483">
        <ele>118</ele>
        <time>2014-07-14T10:33:05Z</time>
      </trkpt>
      <trkpt lat="49.33718" lon="1.05468">
        <ele>118</ele>
        <time>2014-07-14T10:33:11Z</time>
      </trkpt>
      <trkpt lat="49.33715" lon="1.05443">
        <ele>119</ele>
        <time>2014-07-14T10:33:24Z</time>
      </trkpt>
      <trkpt lat="49.33718" lon="1.05418">
        <ele>118</ele>
        <time>2014-07-14T10:33:29Z</time>
      </trkpt>
      <trkpt lat="49.33708" lon="1.054">
        <ele>118</ele>
        <time>2014-07-14T10:33:35Z</time>
      </trkpt>
      <trkpt lat="49.33698" lon="1.05385">
        <ele>118</ele>
        <time>2014-07-14T10:33:40Z</time>
      </trkpt>
      <trkpt lat="49.3369" lon="1.05368">
        <ele>118</ele>
        <time>2014-07-14T10:33:45Z</time>
      </trkpt>
      <trkpt lat="49.33688" lon="1.05345">
        <ele>116</ele>
        <time>2014-07-14T10:33:50Z</time>
      </trkpt>
      <trkpt lat="49.33685" lon="1.05303">
        <ele>115</ele>
        <time>2014-07-14T10:33:56Z</time>
      </trkpt>
      <trkpt lat="49.33675" lon="1.05288">
        <ele>114</ele>
        <time>2014-07-14T10:34:00Z</time>
      </trkpt>
      <trkpt lat="49.3367" lon="1.05268">
        <ele>114</ele>
        <time>2014-07-14T10:34:04Z</time>
      </trkpt>
      <trkpt lat="49.3366" lon="1.0525">
        <ele>115</ele>
        <time>2014-07-14T10:34:08Z</time>
      </trkpt>
      <trkpt lat="49.33663" lon="1.05228">
        <ele>114</ele>
        <time>2014-07-14T10:34:13Z</time>
      </trkpt>
      <trkpt lat="49.3366" lon="1.05205">
        <ele>114</ele>
        <time>2014-07-14T10:34:17Z</time>
      </trkpt>
      <trkpt lat="49.33653" lon="1.0518">
        <ele>114</ele>
        <time>2014-07-14T10:34:22Z</time>
      </trkpt>
      <trkpt lat="49.33645" lon="1.0516">
        <ele>114</ele>
        <time>2014-07-14T10:34:26Z</time>
      </trkpt>
      <trkpt lat="49.33633" lon="1.05133">
        <ele>113</ele>
        <time>2014-07-14T10:34:43Z</time>
      </trkpt>
      <trkpt lat="49.33623" lon="1.05113">
        <ele>113</ele>
        <time>2014-07-14T10:34:48Z</time>
      </trkpt>
      <trkpt lat="49.33615" lon="1.05093">
        <ele>114</ele>
        <time>2014-07-14T10:34:54Z</time>
      </trkpt>
      <trkpt lat="49.33605" lon="1.05068">
        <ele>117</ele>
        <time>2014-07-14T10:35:02Z</time>
      </trkpt>
      <trkpt lat="49.33598" lon="1.05043">
        <ele>120</ele>
        <time>2014-07-14T10:35:09Z</time>
      </trkpt>
      <trkpt lat="49.3359" lon="1.05025">
        <ele>113</ele>
        <time>2014-07-14T10:36:06Z</time>
      </trkpt>
      <trkpt lat="49.33588" lon="1.05003">
        <ele>114</ele>
        <time>2014-07-14T10:36:17Z</time>
      </trkpt>
      <trkpt lat="49.3358" lon="1.0498">
        <ele>114</ele>
        <time>2014-07-14T10:36:21Z</time>
      </trkpt>
      <trkpt lat="49.33573" lon="1.0496">
        <ele>114</ele>
        <time>2014-07-14T10:36:24Z</time>
      </trkpt>
      <trkpt lat="49.33555" lon="1.04905">
        <ele>115</ele>
        <time>2014-07-14T10:36:33Z</time>
      </trkpt>
      <trkpt lat="49.33548" lon="1.0488">
        <ele>115</ele>
        <time>2014-07-14T10:36:37Z</time>
      </trkpt>
      <trkpt lat="49.3354" lon="1.0486">
        <ele>116</ele>
        <time>2014-07-14T10:36:41Z</time>
      </trkpt>
      <trkpt lat="49.33533" lon="1.04833">
        <ele>116</ele>
        <time>2014-07-14T10:36:46Z</time>
      </trkpt>
      <trkpt lat="49.33523" lon="1.04818">
        <ele>116</ele>
        <time>2014-07-14T10:36:51Z</time>
      </trkpt>
      <trkpt lat="49.33508" lon="1.04825">
        <ele>116</ele>
        <time>2014-07-14T10:37:13Z</time>
      </trkpt>
      <trkpt lat="49.33523" lon="1.04838">
        <ele>120</ele>
        <time>2014-07-14T10:39:01Z</time>
      </trkpt>
      <trkpt lat="49.3353" lon="1.04855">
        <ele>120</ele>
        <time>2014-07-14T10:39:05Z</time>
      </trkpt>
      <trkpt lat="49.3354" lon="1.04883">
        <ele>121</ele>
        <time>2014-07-14T10:39:10Z</time>
      </trkpt>
      <trkpt lat="49.33558" lon="1.0492">
        <ele>122</ele>
        <time>2014-07-14T10:39:16Z</time>
      </trkpt>
      <trkpt lat="49.33565" lon="1.0494">
        <ele>122</ele>
        <time>2014-07-14T10:39:19Z</time>
      </trkpt>
      <trkpt lat="49.33573" lon="1.04963">
        <ele>122</ele>
        <time>2014-07-14T10:39:22Z</time>
      </trkpt>
      <trkpt lat="49.33583" lon="1.04993">
        <ele>123</ele>
        <time>2014-07-14T10:39:27Z</time>
      </trkpt>
      <trkpt lat="49.3359" lon="1.05015">
        <ele>123</ele>
        <time>2014-07-14T10:39:33Z</time>
      </trkpt>
      <trkpt lat="49.336" lon="1.0503">
        <ele>125</ele>
        <time>2014-07-14T10:39:46Z</time>
      </trkpt>
      <trkpt lat="49.3359" lon="1.05015">
        <ele>128</ele>
        <time>2014-07-14T10:41:22Z</time>
      </trkpt>
      <trkpt lat="49.33583" lon="1.04995">
        <ele>128</ele>
        <time>2014-07-14T10:41:25Z</time>
      </trkpt>
      <trkpt lat="49.3357" lon="1.0496">
        <ele>128</ele>
        <time>2014-07-14T10:41:30Z</time>
      </trkpt>
      <trkpt lat="49.33563" lon="1.04938">
        <ele>127</ele>
        <time>2014-07-14T10:41:33Z</time>
      </trkpt>
      <trkpt lat="49.3355" lon="1.04895">
        <ele>127</ele>
        <time>2014-07-14T10:41:39Z</time>
      </trkpt>
      <trkpt lat="49.33543" lon="1.04873">
        <ele>126</ele>
        <time>2014-07-14T10:41:42Z</time>
      </trkpt>
      <trkpt lat="49.33535" lon="1.04853">
        <ele>126</ele>
        <time>2014-07-14T10:41:45Z</time>
      </trkpt>
      <trkpt lat="49.33528" lon="1.04828">
        <ele>126</ele>
        <time>2014-07-14T10:41:49Z</time>
      </trkpt>
      <trkpt lat="49.33518" lon="1.04813">
        <ele>127</ele>
        <time>2014-07-14T10:41:53Z</time>
      </trkpt>
      <trkpt lat="49.33508" lon="1.04798">
        <ele>127</ele>
        <time>2014-07-14T10:41:57Z</time>
      </trkpt>
      <trkpt lat="49.33503" lon="1.04778">
        <ele>127</ele>
        <time>2014-07-14T10:42:01Z</time>
      </trkpt>
      <trkpt lat="49.33498" lon="1.04758">
        <ele>127</ele>
        <time>2014-07-14T10:42:04Z</time>
      </trkpt>
      <trkpt lat="49.3349" lon="1.04725">
        <ele>127</ele>
        <time>2014-07-14T10:42:10Z</time>
      </trkpt>
      <trkpt lat="49.33485" lon="1.04703">
        <ele>126</ele>
        <time>2014-07-14T10:42:13Z</time>
      </trkpt>
      <trkpt lat="49.3348" lon="1.04678">
        <ele>125</ele>
        <time>2014-07-14T10:42:17Z</time>
      </trkpt>
      <trkpt lat="49.33475" lon="1.04655">
        <ele>125</ele>
        <time>2014-07-14T10:42:20Z</time>
      </trkpt>
      <trkpt lat="49.33473" lon="1.04633">
        <ele>125</ele>
        <time>2014-07-14T10:42:23Z</time>
      </trkpt>
      <trkpt lat="49.33465" lon="1.0461">
        <ele>125</ele>
        <time>2014-07-14T10:42:27Z</time>
      </trkpt>
      <trkpt lat="49.33463" lon="1.04585">
        <ele>125</ele>
        <time>2014-07-14T10:42:30Z</time>
      </trkpt>
      <trkpt lat="49.33455" lon="1.04568">
        <ele>124</ele>
        <time>2014-07-14T10:42:33Z</time>
      </trkpt>
      <trkpt lat="49.3345" lon="1.04543">
        <ele>125</ele>
        <time>2014-07-14T10:42:37Z</time>
      </trkpt>
      <trkpt lat="49.33443" lon="1.0452">
        <ele>123</ele>
        <time>2014-07-14T10:42:41Z</time>
      </trkpt>
      <trkpt lat="49.33438" lon="1.04495">
        <ele>123</ele>
        <time>2014-07-14T10:42:45Z</time>
      </trkpt>
      <trkpt lat="49.33433" lon="1.04475">
        <ele>123</ele>
        <time>2014-07-14T10:42:48Z</time>
      </trkpt>
      <trkpt lat="49.33425" lon="1.04445">
        <ele>123</ele>
        <time>2014-07-14T10:42:52Z</time>
      </trkpt>
      <trkpt lat="49.3342" lon="1.04415">
        <ele>122</ele>
        <time>2014-07-14T10:42:57Z</time>
      </trkpt>
      <trkpt lat="49.33413" lon="1.04398">
        <ele>123</ele>
        <time>2014-07-14T10:43:05Z</time>
      </trkpt>
      <trkpt lat="49.3341" lon="1.04375">
        <ele>128</ele>
        <time>2014-07-14T10:43:15Z</time>
      </trkpt>
      <trkpt lat="49.33405" lon="1.04355">
        <ele>129</ele>
        <time>2014-07-14T10:43:21Z</time>
      </trkpt>
      <trkpt lat="49.33398" lon="1.04335">
        <ele>129</ele>
        <time>2014-07-14T10:43:25Z</time>
      </trkpt>
      <trkpt lat="49.3339" lon="1.04313">
        <ele>129</ele>
        <time>2014-07-14T10:43:29Z</time>
      </trkpt>
      <trkpt lat="49.334" lon="1.04295">
        <ele>124</ele>
        <time>2014-07-14T10:44:46Z</time>
      </trkpt>
      <trkpt lat="49.33413" lon="1.04283">
        <ele>124</ele>
        <time>2014-07-14T10:44:50Z</time>
      </trkpt>
      <trkpt lat="49.33428" lon="1.04265">
        <ele>124</ele>
        <time>2014-07-14T10:44:55Z</time>
      </trkpt>
      <trkpt lat="49.33443" lon="1.04258">
        <ele>123</ele>
        <time>2014-07-14T10:44:59Z</time>
      </trkpt>
      <trkpt lat="49.33458" lon="1.04258">
        <ele>122</ele>
        <time>2014-07-14T10:45:05Z</time>
      </trkpt>
      <trkpt lat="49.33475" lon="1.04263">
        <ele>121</ele>
        <time>2014-07-14T10:45:09Z</time>
      </trkpt>
      <trkpt lat="49.3349" lon="1.04255">
        <ele>121</ele>
        <time>2014-07-14T10:45:13Z</time>
      </trkpt>
      <trkpt lat="49.33505" lon="1.04248">
        <ele>120</ele>
        <time>2014-07-14T10:45:18Z</time>
      </trkpt>
      <trkpt lat="49.3352" lon="1.04245">
        <ele>119</ele>
        <time>2014-07-14T10:45:25Z</time>
      </trkpt>
      <trkpt lat="49.33525" lon="1.04223">
        <ele>118</ele>
        <time>2014-07-14T10:45:32Z</time>
      </trkpt>
      <trkpt lat="49.33523" lon="1.04198">
        <ele>118</ele>
        <time>2014-07-14T10:45:36Z</time>
      </trkpt>
      <trkpt lat="49.3352" lon="1.04168">
        <ele>117</ele>
        <time>2014-07-14T10:45:44Z</time>
      </trkpt>
      <trkpt lat="49.33515" lon="1.04148">
        <ele>116</ele>
        <time>2014-07-14T10:45:49Z</time>
      </trkpt>
      <trkpt lat="49.3351" lon="1.04118">
        <ele>114</ele>
        <time>2014-07-14T10:45:55Z</time>
      </trkpt>
      <trkpt lat="49.33505" lon="1.04095">
        <ele>114</ele>
        <time>2014-07-14T10:46:00Z</time>
      </trkpt>
      <trkpt lat="49.335" lon="1.04073">
        <ele>113</ele>
        <time>2014-07-14T10:46:04Z</time>
      </trkpt>
      <trkpt lat="49.33495" lon="1.04048">
        <ele>112</ele>
        <time>2014-07-14T10:46:09Z</time>
      </trkpt>
      <trkpt lat="49.33485" lon="1.04033">
        <ele>111</ele>
        <time>2014-07-14T10:46:14Z</time>
      </trkpt>
      <trkpt lat="49.33473" lon="1.04018">
        <ele>111</ele>
        <time>2014-07-14T10:46:18Z</time>
      </trkpt>
      <trkpt lat="49.33468" lon="1.03993">
        <ele>111</ele>
        <time>2014-07-14T10:46:22Z</time>
      </trkpt>
      <trkpt lat="49.3346" lon="1.03975">
        <ele>112</ele>
        <time>2014-07-14T10:46:25Z</time>
      </trkpt>
      <trkpt lat="49.33455" lon="1.03955">
        <ele>114</ele>
        <time>2014-07-14T10:46:28Z</time>
      </trkpt>
      <trkpt lat="49.33448" lon="1.03933">
        <ele>116</ele>
        <time>2014-07-14T10:46:32Z</time>
      </trkpt>
      <trkpt lat="49.3344" lon="1.03913">
        <ele>116</ele>
        <time>2014-07-14T10:46:36Z</time>
      </trkpt>
      <trkpt lat="49.33433" lon="1.03895">
        <ele>117</ele>
        <time>2014-07-14T10:46:39Z</time>
      </trkpt>
      <trkpt lat="49.33403" lon="1.03823">
        <ele>119</ele>
        <time>2014-07-14T10:46:52Z</time>
      </trkpt>
      <trkpt lat="49.33395" lon="1.03803">
        <ele>119</ele>
        <time>2014-07-14T10:46:56Z</time>
      </trkpt>
      <trkpt lat="49.33388" lon="1.03783">
        <ele>119</ele>
        <time>2014-07-14T10:47:00Z</time>
      </trkpt>
      <trkpt lat="49.3338" lon="1.03765">
        <ele>120</ele>
        <time>2014-07-14T10:47:04Z</time>
      </trkpt>
      <trkpt lat="49.33375" lon="1.03745">
        <ele>120</ele>
        <time>2014-07-14T10:47:08Z</time>
      </trkpt>
      <trkpt lat="49.3337" lon="1.0372">
        <ele>122</ele>
        <time>2014-07-14T10:47:13Z</time>
      </trkpt>
      <trkpt lat="49.33365" lon="1.03698">
        <ele>121</ele>
        <time>2014-07-14T10:47:21Z</time>
      </trkpt>
      <trkpt lat="49.33353" lon="1.03688">
        <ele>120</ele>
        <time>2014-07-14T10:49:42Z</time>
      </trkpt>
      <trkpt lat="49.33343" lon="1.0367">
        <ele>121</ele>
        <time>2014-07-14T10:49:48Z</time>
      </trkpt>
      <trkpt lat="49.33348" lon="1.0365">
        <ele>122</ele>
        <time>2014-07-14T10:49:52Z</time>
      </trkpt>
      <trkpt lat="49.33355" lon="1.03628">
        <ele>122</ele>
        <time>2014-07-14T10:49:56Z</time>
      </trkpt>
      <trkpt lat="49.3336" lon="1.03603">
        <ele>122</ele>
        <time>2014-07-14T10:50:01Z</time>
      </trkpt>
      <trkpt lat="49.33365" lon="1.0358">
        <ele>122</ele>
        <time>2014-07-14T10:50:06Z</time>
      </trkpt>
      <trkpt lat="49.3336" lon="1.0356">
        <ele>121</ele>
        <time>2014-07-14T10:50:18Z</time>
      </trkpt>
      <trkpt lat="49.33353" lon="1.0354">
        <ele>121</ele>
        <time>2014-07-14T10:50:24Z</time>
      </trkpt>
      <trkpt lat="49.33358" lon="1.0352">
        <ele>120</ele>
        <time>2014-07-14T10:50:30Z</time>
      </trkpt>
      <trkpt lat="49.33355" lon="1.03498">
        <ele>119</ele>
        <time>2014-07-14T10:50:40Z</time>
      </trkpt>
      <trkpt lat="49.33345" lon="1.03483">
        <ele>120</ele>
        <time>2014-07-14T10:50:47Z</time>
      </trkpt>
      <trkpt lat="49.3333" lon="1.03483">
        <ele>117</ele>
        <time>2014-07-14T10:52:36Z</time>
      </trkpt>
      <trkpt lat="49.3332" lon="1.03468">
        <ele>116</ele>
        <time>2014-07-14T10:52:59Z</time>
      </trkpt>
      <trkpt lat="49.33308" lon="1.0345">
        <ele>117</ele>
        <time>2014-07-14T10:53:08Z</time>
      </trkpt>
      <trkpt lat="49.33298" lon="1.03435">
        <ele>117</ele>
        <time>2014-07-14T10:53:15Z</time>
      </trkpt>
      <trkpt lat="49.33288" lon="1.03418">
        <ele>118</ele>
        <time>2014-07-14T10:53:24Z</time>
      </trkpt>
      <trkpt lat="49.33278" lon="1.03395">
        <ele>119</ele>
        <time>2014-07-14T10:53:35Z</time>
      </trkpt>
      <trkpt lat="49.3327" lon="1.03375">
        <ele>120</ele>
        <time>2014-07-14T10:53:41Z</time>
      </trkpt>
      <trkpt lat="49.33258" lon="1.03365">
        <ele>121</ele>
        <time>2014-07-14T10:53:48Z</time>
      </trkpt>
      <trkpt lat="49.3324" lon="1.03363">
        <ele>122</ele>
        <time>2014-07-14T10:53:55Z</time>
      </trkpt>
      <trkpt lat="49.33228" lon="1.03373">
        <ele>122</ele>
        <time>2014-07-14T10:53:58Z</time>
      </trkpt>
      <trkpt lat="49.33213" lon="1.03383">
        <ele>121</ele>
        <time>2014-07-14T10:54:04Z</time>
      </trkpt>
      <trkpt lat="49.332" lon="1.03393">
        <ele>122</ele>
        <time>2014-07-14T10:54:08Z</time>
      </trkpt>
      <trkpt lat="49.33185" lon="1.03393">
        <ele>121</ele>
        <time>2014-07-14T10:54:13Z</time>
      </trkpt>
      <trkpt lat="49.3317" lon="1.03383">
        <ele>122</ele>
        <time>2014-07-14T10:54:18Z</time>
      </trkpt>
      <trkpt lat="49.33158" lon="1.0337">
        <ele>124</ele>
        <time>2014-07-14T10:54:23Z</time>
      </trkpt>
      <trkpt lat="49.3314" lon="1.0336">
        <ele>124</ele>
        <time>2014-07-14T10:54:29Z</time>
      </trkpt>
      <trkpt lat="49.33125" lon="1.03355">
        <ele>125</ele>
        <time>2014-07-14T10:54:34Z</time>
      </trkpt>
      <trkpt lat="49.3311" lon="1.03348">
        <ele>126</ele>
        <time>2014-07-14T10:54:41Z</time>
      </trkpt>
      <trkpt lat="49.33093" lon="1.0334">
        <ele>128</ele>
        <time>2014-07-14T10:54:48Z</time>
      </trkpt>
      <trkpt lat="49.33078" lon="1.03335">
        <ele>129</ele>
        <time>2014-07-14T10:54:54Z</time>
      </trkpt>
      <trkpt lat="49.33063" lon="1.03328">
        <ele>129</ele>
        <time>2014-07-14T10:55:01Z</time>
      </trkpt>
      <trkpt lat="49.3305" lon="1.03315">
        <ele>130</ele>
        <time>2014-07-14T10:55:07Z</time>
      </trkpt>
      <trkpt lat="49.33038" lon="1.03298">
        <ele>131</ele>
        <time>2014-07-14T10:55:13Z</time>
      </trkpt>
      <trkpt lat="49.33028" lon="1.0328">
        <ele>132</ele>
        <time>2014-07-14T10:55:19Z</time>
      </trkpt>
      <trkpt lat="49.33015" lon="1.03295">
        <ele>135</ele>
        <time>2014-07-14T10:59:59Z</time>
      </trkpt>
      <trkpt lat="49.33" lon="1.03293">
        <ele>135</ele>
        <time>2014-07-14T11:00:05Z</time>
      </trkpt>
      <trkpt lat="49.32995" lon="1.0327">
        <ele>135</ele>
        <time>2014-07-14T11:00:10Z</time>
      </trkpt>
      <trkpt lat="49.33" lon="1.03245">
        <ele>136</ele>
        <time>2014-07-14T11:00:14Z</time>
      </trkpt>
      <trkpt lat="49.33005" lon="1.03225">
        <ele>136</ele>
        <time>2014-07-14T11:00:18Z</time>
      </trkpt>
      <trkpt lat="49.3302" lon="1.03185">
        <ele>137</ele>
        <time>2014-07-14T11:00:35Z</time>
      </trkpt>
      <trkpt lat="49.33025" lon="1.03163">
        <ele>138</ele>
        <time>2014-07-14T11:00:40Z</time>
      </trkpt>
      <trkpt lat="49.33033" lon="1.03145">
        <ele>139</ele>
        <time>2014-07-14T11:00:45Z</time>
      </trkpt>
      <trkpt lat="49.33038" lon="1.03125">
        <ele>140</ele>
        <time>2014-07-14T11:00:50Z</time>
      </trkpt>
      <trkpt lat="49.33045" lon="1.03108">
        <ele>139</ele>
        <time>2014-07-14T11:00:55Z</time>
      </trkpt>
      <trkpt lat="49.3305" lon="1.03088">
        <ele>139</ele>
        <time>2014-07-14T11:00:59Z</time>
      </trkpt>
      <trkpt lat="49.33055" lon="1.03065">
        <ele>139</ele>
        <time>2014-07-14T11:01:03Z</time>
      </trkpt>
      <trkpt lat="49.3306" lon="1.03035">
        <ele>140</ele>
        <time>2014-07-14T11:01:08Z</time>
      </trkpt>
      <trkpt lat="49.33068" lon="1.03013">
        <ele>139</ele>
        <time>2014-07-14T11:01:12Z</time>
      </trkpt>
      <trkpt lat="49.33073" lon="1.0299">
        <ele>139</ele>
        <time>2014-07-14T11:01:15Z</time>
      </trkpt>
      <trkpt lat="49.33075" lon="1.02968">
        <ele>140</ele>
        <time>2014-07-14T11:01:18Z</time>
      </trkpt>
      <trkpt lat="49.33078" lon="1.02938">
        <ele>140</ele>
        <time>2014-07-14T11:01:22Z</time>
      </trkpt>
      <trkpt lat="49.33083" lon="1.02918">
        <ele>141</ele>
        <time>2014-07-14T11:01:25Z</time>
      </trkpt>
      <trkpt lat="49.33088" lon="1.02893">
        <ele>141</ele>
        <time>2014-07-14T11:01:29Z</time>
      </trkpt>
      <trkpt lat="49.33095" lon="1.02855">
        <ele>141</ele>
        <time>2014-07-14T11:01:34Z</time>
      </trkpt>
      <trkpt lat="49.33098" lon="1.02828">
        <ele>141</ele>
        <time>2014-07-14T11:01:38Z</time>
      </trkpt>
      <trkpt lat="49.33103" lon="1.02793">
        <ele>142</ele>
        <time>2014-07-14T11:01:43Z</time>
      </trkpt>
      <trkpt lat="49.33105" lon="1.02765">
        <ele>141</ele>
        <time>2014-07-14T11:01:47Z</time>
      </trkpt>
      <trkpt lat="49.33113" lon="1.02743">
        <ele>141</ele>
        <time>2014-07-14T11:01:51Z</time>
      </trkpt>
      <trkpt lat="49.33123" lon="1.0272">
        <ele>141</ele>
        <time>2014-07-14T11:01:55Z</time>
      </trkpt>
      <trkpt lat="49.33123" lon="1.02695">
        <ele>142</ele>
        <time>2014-07-14T11:01:58Z</time>
      </trkpt>
      <trkpt lat="49.33125" lon="1.02673">
        <ele>142</ele>
        <time>2014-07-14T11:02:01Z</time>
      </trkpt>
      <trkpt lat="49.33128" lon="1.02625">
        <ele>141</ele>
        <time>2014-07-14T11:02:07Z</time>
      </trkpt>
      <trkpt lat="49.33135" lon="1.026">
        <ele>141</ele>
        <time>2014-07-14T11:02:10Z</time>
      </trkpt>
      <trkpt lat="49.33138" lon="1.02575">
        <ele>141</ele>
        <time>2014-07-14T11:02:13Z</time>
      </trkpt>
      <trkpt lat="49.3314" lon="1.02548">
        <ele>141</ele>
        <time>2014-07-14T11:02:16Z</time>
      </trkpt>
      <trkpt lat="49.33143" lon="1.02513">
        <ele>140</ele>
        <time>2014-07-14T11:02:20Z</time>
      </trkpt>
      <trkpt lat="49.33145" lon="1.02485">
        <ele>140</ele>
        <time>2014-07-14T11:02:23Z</time>
      </trkpt>
      <trkpt lat="49.33138" lon="1.02458">
        <ele>140</ele>
        <time>2014-07-14T11:02:26Z</time>
      </trkpt>
      <trkpt lat="49.3313" lon="1.02433">
        <ele>139</ele>
        <time>2014-07-14T11:02:29Z</time>
      </trkpt>
      <trkpt lat="49.33105" lon="1.02353">
        <ele>140</ele>
        <time>2014-07-14T11:02:38Z</time>
      </trkpt>
      <trkpt lat="49.3303" lon="1.02128">
        <ele>142</ele>
        <time>2014-07-14T11:03:04Z</time>
      </trkpt>
      <trkpt lat="49.33008" lon="1.0206">
        <ele>143</ele>
        <time>2014-07-14T11:03:12Z</time>
      </trkpt>
      <trkpt lat="49.32998" lon="1.02035">
        <ele>143</ele>
        <time>2014-07-14T11:03:15Z</time>
      </trkpt>
      <trkpt lat="49.3299" lon="1.02015">
        <ele>143</ele>
        <time>2014-07-14T11:03:18Z</time>
      </trkpt>
      <trkpt lat="49.32983" lon="1.01995">
        <ele>144</ele>
        <time>2014-07-14T11:03:21Z</time>
      </trkpt>
      <trkpt lat="49.32975" lon="1.01975">
        <ele>144</ele>
        <time>2014-07-14T11:03:25Z</time>
      </trkpt>
      <trkpt lat="49.32965" lon="1.01948">
        <ele>144</ele>
        <time>2014-07-14T11:03:31Z</time>
      </trkpt>
      <trkpt lat="49.3296" lon="1.01928">
        <ele>143</ele>
        <time>2014-07-14T11:03:35Z</time>
      </trkpt>
      <trkpt lat="49.32953" lon="1.01898">
        <ele>143</ele>
        <time>2014-07-14T11:03:40Z</time>
      </trkpt>
      <trkpt lat="49.32945" lon="1.01875">
        <ele>144</ele>
        <time>2014-07-14T11:03:44Z</time>
      </trkpt>
      <trkpt lat="49.32935" lon="1.01838">
        <ele>147</ele>
        <time>2014-07-14T11:06:39Z</time>
      </trkpt>
      <trkpt lat="49.3293" lon="1.01818">
        <ele>147</ele>
        <time>2014-07-14T11:06:44Z</time>
      </trkpt>
      <trkpt lat="49.32923" lon="1.01798">
        <ele>146</ele>
        <time>2014-07-14T11:06:47Z</time>
      </trkpt>
      <trkpt lat="49.32905" lon="1.01798">
        <ele>146</ele>
        <time>2014-07-14T11:06:51Z</time>
      </trkpt>
      <trkpt lat="49.3289" lon="1.0181">
        <ele>145</ele>
        <time>2014-07-14T11:06:54Z</time>
      </trkpt>
      <trkpt lat="49.32868" lon="1.01828">
        <ele>145</ele>
        <time>2014-07-14T11:06:58Z</time>
      </trkpt>
      <trkpt lat="49.32805" lon="1.01875">
        <ele>145</ele>
        <time>2014-07-14T11:07:09Z</time>
      </trkpt>
      <trkpt lat="49.32748" lon="1.0192">
        <ele>145</ele>
        <time>2014-07-14T11:07:19Z</time>
      </trkpt>
      <trkpt lat="49.32695" lon="1.0196">
        <ele>143</ele>
        <time>2014-07-14T11:07:28Z</time>
      </trkpt>
      <trkpt lat="49.3268" lon="1.01973">
        <ele>143</ele>
        <time>2014-07-14T11:07:31Z</time>
      </trkpt>
      <trkpt lat="49.32665" lon="1.01983">
        <ele>142</ele>
        <time>2014-07-14T11:07:34Z</time>
      </trkpt>
      <trkpt lat="49.32653" lon="1.01968">
        <ele>143</ele>
        <time>2014-07-14T11:07:38Z</time>
      </trkpt>
      <trkpt lat="49.3264" lon="1.01953">
        <ele>142</ele>
        <time>2014-07-14T11:07:43Z</time>
      </trkpt>
      <trkpt lat="49.32625" lon="1.01948">
        <ele>141</ele>
        <time>2014-07-14T11:08:21Z</time>
      </trkpt>
      <trkpt lat="49.32613" lon="1.01933">
        <ele>141</ele>
        <time>2014-07-14T11:08:27Z</time>
      </trkpt>
      <trkpt lat="49.32598" lon="1.01923">
        <ele>140</ele>
        <time>2014-07-14T11:08:31Z</time>
      </trkpt>
      <trkpt lat="49.3258" lon="1.01933">
        <ele>140</ele>
        <time>2014-07-14T11:08:36Z</time>
      </trkpt>
      <trkpt lat="49.32563" lon="1.01935">
        <ele>139</ele>
        <time>2014-07-14T11:08:40Z</time>
      </trkpt>
      <trkpt lat="49.32558" lon="1.01913">
        <ele>137</ele>
        <time>2014-07-14T11:08:45Z</time>
      </trkpt>
      <trkpt lat="49.32555" lon="1.01885">
        <ele>135</ele>
        <time>2014-07-14T11:08:49Z</time>
      </trkpt>
      <trkpt lat="49.3255" lon="1.01858">
        <ele>134</ele>
        <time>2014-07-14T11:08:52Z</time>
      </trkpt>
      <trkpt lat="49.32548" lon="1.01828">
        <ele>133</ele>
        <time>2014-07-14T11:08:55Z</time>
      </trkpt>
      <trkpt lat="49.32545" lon="1.01798">
        <ele>133</ele>
        <time>2014-07-14T11:08:58Z</time>
      </trkpt>
      <trkpt lat="49.32535" lon="1.01778">
        <ele>132</ele>
        <time>2014-07-14T11:09:01Z</time>
      </trkpt>
      <trkpt lat="49.32523" lon="1.01745">
        <ele>132</ele>
        <time>2014-07-14T11:09:05Z</time>
      </trkpt>
      <trkpt lat="49.3251" lon="1.01728">
        <ele>131</ele>
        <time>2014-07-14T11:09:09Z</time>
      </trkpt>
      <trkpt lat="49.32503" lon="1.0171">
        <ele>129</ele>
        <time>2014-07-14T11:09:26Z</time>
      </trkpt>
      <trkpt lat="49.32505" lon="1.01688">
        <ele>128</ele>
        <time>2014-07-14T11:10:54Z</time>
      </trkpt>
      <trkpt lat="49.32518" lon="1.01673">
        <ele>128</ele>
        <time>2014-07-14T11:10:59Z</time>
      </trkpt>
      <trkpt lat="49.32518" lon="1.0165">
        <ele>128</ele>
        <time>2014-07-14T11:11:04Z</time>
      </trkpt>
      <trkpt lat="49.32518" lon="1.01628">
        <ele>128</ele>
        <time>2014-07-14T11:11:09Z</time>
      </trkpt>
      <trkpt lat="49.32513" lon="1.01603">
        <ele>128</ele>
        <time>2014-07-14T11:11:13Z</time>
      </trkpt>
      <trkpt lat="49.32508" lon="1.0158">
        <ele>128</ele>
        <time>2014-07-14T11:11:17Z</time>
      </trkpt>
      <trkpt lat="49.32503" lon="1.01558">
        <ele>129</ele>
        <time>2014-07-14T11:11:21Z</time>
      </trkpt>
      <trkpt lat="49.32493" lon="1.01538">
        <ele>130</ele>
        <time>2014-07-14T11:11:25Z</time>
      </trkpt>
      <trkpt lat="49.3248" lon="1.01523">
        <ele>130</ele>
        <time>2014-07-14T11:11:32Z</time>
      </trkpt>
      <trkpt lat="49.3247" lon="1.01503">
        <ele>131</ele>
        <time>2014-07-14T11:11:37Z</time>
      </trkpt>
      <trkpt lat="49.32455" lon="1.01478">
        <ele>132</ele>
        <time>2014-07-14T11:11:42Z</time>
      </trkpt>
      <trkpt lat="49.32448" lon="1.0146">
        <ele>133</ele>
        <time>2014-07-14T11:11:45Z</time>
      </trkpt>
      <trkpt lat="49.32433" lon="1.01443">
        <ele>133</ele>
        <time>2014-07-14T11:11:49Z</time>
      </trkpt>
      <trkpt lat="49.32423" lon="1.01425">
        <ele>133</ele>
        <time>2014-07-14T11:11:52Z</time>
      </trkpt>
      <trkpt lat="49.32405" lon="1.0141">
        <ele>133</ele>
        <time>2014-07-14T11:11:55Z</time>
      </trkpt>
      <trkpt lat="49.32395" lon="1.01388">
        <ele>133</ele>
        <time>2014-07-14T11:11:58Z</time>
      </trkpt>
      <trkpt lat="49.32368" lon="1.0132">
        <ele>133</ele>
        <time>2014-07-14T11:12:07Z</time>
      </trkpt>
      <trkpt lat="49.3236" lon="1.01303">
        <ele>134</ele>
        <time>2014-07-14T11:12:17Z</time>
      </trkpt>
      <trkpt lat="49.32355" lon="1.01283">
        <ele>141</ele>
        <time>2014-07-14T11:12:50Z</time>
      </trkpt>
      <trkpt lat="49.32355" lon="1.0126">
        <ele>141</ele>
        <time>2014-07-14T11:12:53Z</time>
      </trkpt>
      <trkpt lat="49.32348" lon="1.01238">
        <ele>135</ele>
        <time>2014-07-14T11:13:20Z</time>
      </trkpt>
      <trkpt lat="49.32343" lon="1.01213">
        <ele>134</ele>
        <time>2014-07-14T11:13:23Z</time>
      </trkpt>
      <trkpt lat="49.3233" lon="1.0118">
        <ele>134</ele>
        <time>2014-07-14T11:13:26Z</time>
      </trkpt>
      <trkpt lat="49.32318" lon="1.01148">
        <ele>133</ele>
        <time>2014-07-14T11:13:30Z</time>
      </trkpt>
      <trkpt lat="49.32305" lon="1.01133">
        <ele>132</ele>
        <time>2014-07-14T11:13:33Z</time>
      </trkpt>
      <trkpt lat="49.32293" lon="1.01123">
        <ele>132</ele>
        <time>2014-07-14T11:13:35Z</time>
      </trkpt>
      <trkpt lat="49.32278" lon="1.01113">
        <ele>131</ele>
        <time>2014-07-14T11:13:37Z</time>
      </trkpt>
      <trkpt lat="49.32253" lon="1.01098">
        <ele>129</ele>
        <time>2014-07-14T11:13:41Z</time>
      </trkpt>
      <trkpt lat="49.32235" lon="1.011">
        <ele>128</ele>
        <time>2014-07-14T11:13:43Z</time>
      </trkpt>
      <trkpt lat="49.3222" lon="1.01103">
        <ele>127</ele>
        <time>2014-07-14T11:13:45Z</time>
      </trkpt>
      <trkpt lat="49.32203" lon="1.011">
        <ele>126</ele>
        <time>2014-07-14T11:13:48Z</time>
      </trkpt>
      <trkpt lat="49.32198" lon="1.01078">
        <ele>126</ele>
        <time>2014-07-14T11:13:51Z</time>
      </trkpt>
      <trkpt lat="49.3219" lon="1.0104">
        <ele>124</ele>
        <time>2014-07-14T11:13:55Z</time>
      </trkpt>
      <trkpt lat="49.32178" lon="1.00988">
        <ele>122</ele>
        <time>2014-07-14T11:14:00Z</time>
      </trkpt>
      <trkpt lat="49.3216" lon="1.0099">
        <ele>122</ele>
        <time>2014-07-14T11:14:02Z</time>
      </trkpt>
      <trkpt lat="49.32155" lon="1.0097">
        <ele>118</ele>
        <time>2014-07-14T11:14:11Z</time>
      </trkpt>
      <trkpt lat="49.3216" lon="1.0095">
        <ele>115</ele>
        <time>2014-07-14T11:14:17Z</time>
      </trkpt>
      <trkpt lat="49.32153" lon="1.00928">
        <ele>113</ele>
        <time>2014-07-14T11:14:22Z</time>
      </trkpt>
      <trkpt lat="49.3214" lon="1.00918">
        <ele>111</ele>
        <time>2014-07-14T11:14:25Z</time>
      </trkpt>
      <trkpt lat="49.3213" lon="1.009">
        <ele>110</ele>
        <time>2014-07-14T11:14:30Z</time>
      </trkpt>
      <trkpt lat="49.32138" lon="1.00878">
        <ele>107</ele>
        <time>2014-07-14T11:14:37Z</time>
      </trkpt>
      <trkpt lat="49.32145" lon="1.00858">
        <ele>105</ele>
        <time>2014-07-14T11:14:46Z</time>
      </trkpt>
      <trkpt lat="49.3215" lon="1.00838">
        <ele>103</ele>
        <time>2014-07-14T11:14:55Z</time>
      </trkpt>
      <trkpt lat="49.32158" lon="1.00815">
        <ele>102</ele>
        <time>2014-07-14T11:15:04Z</time>
      </trkpt>
      <trkpt lat="49.32165" lon="1.0079">
        <ele>100</ele>
        <time>2014-07-14T11:15:11Z</time>
      </trkpt>
      <trkpt lat="49.32173" lon="1.00773">
        <ele>100</ele>
        <time>2014-07-14T11:15:19Z</time>
      </trkpt>
      <trkpt lat="49.32183" lon="1.00758">
        <ele>96</ele>
        <time>2014-07-14T11:15:24Z</time>
      </trkpt>
      <trkpt lat="49.32198" lon="1.00753">
        <ele>97</ele>
        <time>2014-07-14T11:15:32Z</time>
      </trkpt>
      <trkpt lat="49.32213" lon="1.00755">
        <ele>95</ele>
        <time>2014-07-14T11:15:41Z</time>
      </trkpt>
      <trkpt lat="49.32228" lon="1.0076">
        <ele>100</ele>
        <time>2014-07-14T11:18:33Z</time>
      </trkpt>
      <trkpt lat="49.32243" lon="1.0076">
        <ele>100</ele>
        <time>2014-07-14T11:18:37Z</time>
      </trkpt>
      <trkpt lat="49.32235" lon="1.00743">
        <ele>99</ele>
        <time>2014-07-14T11:18:49Z</time>
      </trkpt>
      <trkpt lat="49.32225" lon="1.00728">
        <ele>99</ele>
        <time>2014-07-14T11:18:55Z</time>
      </trkpt>
      <trkpt lat="49.32223" lon="1.00705">
        <ele>100</ele>
        <time>2014-07-14T11:19:01Z</time>
      </trkpt>
      <trkpt lat="49.32225" lon="1.00683">
        <ele>100</ele>
        <time>2014-07-14T11:19:09Z</time>
      </trkpt>
      <trkpt lat="49.32233" lon="1.00663">
        <ele>100</ele>
        <time>2014-07-14T11:19:14Z</time>
      </trkpt>
      <trkpt lat="49.32235" lon="1.00638">
        <ele>102</ele>
        <time>2014-07-14T11:19:20Z</time>
      </trkpt>
      <trkpt lat="49.32235" lon="1.00615">
        <ele>103</ele>
        <time>2014-07-14T11:19:25Z</time>
      </trkpt>
      <trkpt lat="49.32235" lon="1.0059">
        <ele>104</ele>
        <time>2014-07-14T11:19:30Z</time>
      </trkpt>
      <trkpt lat="49.32243" lon="1.0057">
        <ele>105</ele>
        <time>2014-07-14T11:19:36Z</time>
      </trkpt>
      <trkpt lat="49.32255" lon="1.00555">
        <ele>105</ele>
        <time>2014-07-14T11:19:43Z</time>
      </trkpt>
      <trkpt lat="49.32255" lon="1.0053">
        <ele>106</ele>
        <time>2014-07-14T11:19:51Z</time>
      </trkpt>
      <trkpt lat="49.32253" lon="1.00505">
        <ele>108</ele>
        <time>2014-07-14T11:19:59Z</time>
      </trkpt>
      <trkpt lat="49.32248" lon="1.00485">
        <ele>110</ele>
        <time>2014-07-14T11:20:04Z</time>
      </trkpt>
      <trkpt lat="49.32243" lon="1.00463">
        <ele>111</ele>
        <time>2014-07-14T11:20:11Z</time>
      </trkpt>
      <trkpt lat="49.32228" lon="1.0047">
        <ele>115</ele>
        <time>2014-07-14T11:20:28Z</time>
      </trkpt>
      <trkpt lat="49.32223" lon="1.0049">
        <ele>114</ele>
        <time>2014-07-14T11:22:13Z</time>
      </trkpt>
      <trkpt lat="49.32215" lon="1.00508">
        <ele>114</ele>
        <time>2014-07-14T11:22:17Z</time>
      </trkpt>
      <trkpt lat="49.322" lon="1.00513">
        <ele>114</ele>
        <time>2014-07-14T11:22:24Z</time>
      </trkpt>
      <trkpt lat="49.32183" lon="1.00508">
        <ele>114</ele>
        <time>2014-07-14T11:22:28Z</time>
      </trkpt>
      <trkpt lat="49.32168" lon="1.0051">
        <ele>114</ele>
        <time>2014-07-14T11:22:32Z</time>
      </trkpt>
      <trkpt lat="49.32153" lon="1.00518">
        <ele>114</ele>
        <time>2014-07-14T11:22:36Z</time>
      </trkpt>
      <trkpt lat="49.32138" lon="1.00525">
        <ele>114</ele>
        <time>2014-07-14T11:22:40Z</time>
      </trkpt>
      <trkpt lat="49.3212" lon="1.00533">
        <ele>114</ele>
        <time>2014-07-14T11:22:44Z</time>
      </trkpt>
      <trkpt lat="49.32108" lon="1.00548">
        <ele>113</ele>
        <time>2014-07-14T11:22:47Z</time>
      </trkpt>
      <trkpt lat="49.32093" lon="1.00568">
        <ele>113</ele>
        <time>2014-07-14T11:22:51Z</time>
      </trkpt>
      <trkpt lat="49.32085" lon="1.0059">
        <ele>114</ele>
        <time>2014-07-14T11:22:55Z</time>
      </trkpt>
      <trkpt lat="49.32075" lon="1.0061">
        <ele>115</ele>
        <time>2014-07-14T11:22:59Z</time>
      </trkpt>
      <trkpt lat="49.32068" lon="1.0059">
        <ele>114</ele>
        <time>2014-07-14T11:23:08Z</time>
      </trkpt>
      <trkpt lat="49.3207" lon="1.00568">
        <ele>116</ele>
        <time>2014-07-14T11:23:14Z</time>
      </trkpt>
      <trkpt lat="49.32065" lon="1.00545">
        <ele>118</ele>
        <time>2014-07-14T11:23:23Z</time>
      </trkpt>
      <trkpt lat="49.32053" lon="1.0053">
        <ele>125</ele>
        <time>2014-07-14T11:24:36Z</time>
      </trkpt>
      <trkpt lat="49.3204" lon="1.00513">
        <ele>125</ele>
        <time>2014-07-14T11:24:42Z</time>
      </trkpt>
      <trkpt lat="49.32028" lon="1.005">
        <ele>126</ele>
        <time>2014-07-14T11:24:48Z</time>
      </trkpt>
      <trkpt lat="49.32018" lon="1.00485">
        <ele>127</ele>
        <time>2014-07-14T11:24:53Z</time>
      </trkpt>
      <trkpt lat="49.3201" lon="1.00468">
        <ele>128</ele>
        <time>2014-07-14T11:24:57Z</time>
      </trkpt>
      <trkpt lat="49.32003" lon="1.00448">
        <ele>128</ele>
        <time>2014-07-14T11:25:01Z</time>
      </trkpt>
      <trkpt lat="49.31993" lon="1.00433">
        <ele>129</ele>
        <time>2014-07-14T11:25:04Z</time>
      </trkpt>
      <trkpt lat="49.31975" lon="1.0041">
        <ele>130</ele>
        <time>2014-07-14T11:25:10Z</time>
      </trkpt>
      <trkpt lat="49.31968" lon="1.00393">
        <ele>131</ele>
        <time>2014-07-14T11:25:13Z</time>
      </trkpt>
      <trkpt lat="49.31958" lon="1.00378">
        <ele>131</ele>
        <time>2014-07-14T11:25:16Z</time>
      </trkpt>
      <trkpt lat="49.31943" lon="1.0036">
        <ele>129</ele>
        <time>2014-07-14T11:25:20Z</time>
      </trkpt>
      <trkpt lat="49.31928" lon="1.00345">
        <ele>128</ele>
        <time>2014-07-14T11:25:24Z</time>
      </trkpt>
      <trkpt lat="49.31913" lon="1.0034">
        <ele>127</ele>
        <time>2014-07-14T11:25:31Z</time>
      </trkpt>
      <trkpt lat="49.319" lon="1.0033">
        <ele>126</ele>
        <time>2014-07-14T11:25:37Z</time>
      </trkpt>
      <trkpt lat="49.31888" lon="1.0031">
        <ele>124</ele>
        <time>2014-07-14T11:25:41Z</time>
      </trkpt>
      <trkpt lat="49.31875" lon="1.00293">
        <ele>124</ele>
        <time>2014-07-14T11:25:45Z</time>
      </trkpt>
      <trkpt lat="49.31865" lon="1.00278">
        <ele>124</ele>
        <time>2014-07-14T11:25:48Z</time>
      </trkpt>
      <trkpt lat="49.31853" lon="1.00263">
        <ele>123</ele>
        <time>2014-07-14T11:25:52Z</time>
      </trkpt>
      <trkpt lat="49.31845" lon="1.00245">
        <ele>123</ele>
        <time>2014-07-14T11:25:56Z</time>
      </trkpt>
      <trkpt lat="49.31833" lon="1.00228">
        <ele>123</ele>
        <time>2014-07-14T11:25:59Z</time>
      </trkpt>
      <trkpt lat="49.31823" lon="1.0021">
        <ele>121</ele>
        <time>2014-07-14T11:26:03Z</time>
      </trkpt>
      <trkpt lat="49.31813" lon="1.00185">
        <ele>117</ele>
        <time>2014-07-14T11:26:11Z</time>
      </trkpt>
      <trkpt lat="49.3181" lon="1.0016">
        <ele>107</ele>
        <time>2014-07-14T11:27:31Z</time>
      </trkpt>
      <trkpt lat="49.3181" lon="1.00135">
        <ele>106</ele>
        <time>2014-07-14T11:27:35Z</time>
      </trkpt>
      <trkpt lat="49.31815" lon="1.00113">
        <ele>107</ele>
        <time>2014-07-14T11:27:41Z</time>
      </trkpt>
      <trkpt lat="49.31803" lon="1.00103">
        <ele>110</ele>
        <time>2014-07-14T11:28:35Z</time>
      </trkpt>
      <trkpt lat="49.31788" lon="1.00103">
        <ele>109</ele>
        <time>2014-07-14T11:28:44Z</time>
      </trkpt>
      <trkpt lat="49.31773" lon="1.0011">
        <ele>107</ele>
        <time>2014-07-14T11:28:53Z</time>
      </trkpt>
      <trkpt lat="49.31758" lon="1.00115">
        <ele>107</ele>
        <time>2014-07-14T11:28:59Z</time>
      </trkpt>
      <trkpt lat="49.3174" lon="1.00118">
        <ele>106</ele>
        <time>2014-07-14T11:29:04Z</time>
      </trkpt>
      <trkpt lat="49.31725" lon="1.00108">
        <ele>103</ele>
        <time>2014-07-14T11:29:32Z</time>
      </trkpt>
      <trkpt lat="49.3171" lon="1.00105">
        <ele>102</ele>
        <time>2014-07-14T11:29:41Z</time>
      </trkpt>
      <trkpt lat="49.31698" lon="1.00095">
        <ele>102</ele>
        <time>2014-07-14T11:29:46Z</time>
      </trkpt>
      <trkpt lat="49.31683" lon="1.0008">
        <ele>98</ele>
        <time>2014-07-14T11:30:04Z</time>
      </trkpt>
      <trkpt lat="49.31673" lon="1.0006">
        <ele>96</ele>
        <time>2014-07-14T11:30:14Z</time>
      </trkpt>
      <trkpt lat="49.31673" lon="1.00035">
        <ele>96</ele>
        <time>2014-07-14T11:30:21Z</time>
      </trkpt>
      <trkpt lat="49.31663" lon="1.0002">
        <ele>95</ele>
        <time>2014-07-14T11:30:28Z</time>
      </trkpt>
      <trkpt lat="49.31663" lon="0.99998">
        <ele>93</ele>
        <time>2014-07-14T11:30:55Z</time>
      </trkpt>
      <trkpt lat="49.31648" lon="0.9998">
        <ele>94</ele>
        <time>2014-07-14T11:32:21Z</time>
      </trkpt>
      <trkpt lat="49.31633" lon="0.9998">
        <ele>94</ele>
        <time>2014-07-14T11:32:26Z</time>
      </trkpt>
      <trkpt lat="49.31618" lon="0.9998">
        <ele>95</ele>
        <time>2014-07-14T11:32:31Z</time>
      </trkpt>
      <trkpt lat="49.31605" lon="0.9997">
        <ele>95</ele>
        <time>2014-07-14T11:32:34Z</time>
      </trkpt>
      <trkpt lat="49.3159" lon="0.99968">
        <ele>95</ele>
        <time>2014-07-14T11:32:38Z</time>
      </trkpt>
      <trkpt lat="49.31575" lon="0.99965">
        <ele>94</ele>
        <time>2014-07-14T11:32:43Z</time>
      </trkpt>
      <trkpt lat="49.31568" lon="0.99943">
        <ele>98</ele>
        <time>2014-07-14T11:33:04Z</time>
      </trkpt>
      <trkpt lat="49.31555" lon="0.99933">
        <ele>98</ele>
        <time>2014-07-14T11:33:09Z</time>
      </trkpt>
      <trkpt lat="49.31543" lon="0.99918">
        <ele>97</ele>
        <time>2014-07-14T11:33:14Z</time>
      </trkpt>
      <trkpt lat="49.31535" lon="0.999">
        <ele>96</ele>
        <time>2014-07-14T11:33:17Z</time>
      </trkpt>
      <trkpt lat="49.3152" lon="0.99885">
        <ele>96</ele>
        <time>2014-07-14T11:33:21Z</time>
      </trkpt>
      <trkpt lat="49.3152" lon="0.9986">
        <ele>94</ele>
        <time>2014-07-14T11:33:25Z</time>
      </trkpt>
      <trkpt lat="49.31528" lon="0.99838">
        <ele>92</ele>
        <time>2014-07-14T11:33:29Z</time>
      </trkpt>
      <trkpt lat="49.31535" lon="0.9982">
        <ele>91</ele>
        <time>2014-07-14T11:33:33Z</time>
      </trkpt>
      <trkpt lat="49.3153" lon="0.998">
        <ele>90</ele>
        <time>2014-07-14T11:33:36Z</time>
      </trkpt>
      <trkpt lat="49.3152" lon="0.99785">
        <ele>90</ele>
        <time>2014-07-14T11:33:39Z</time>
      </trkpt>
      <trkpt lat="49.31505" lon="0.9977">
        <ele>87</ele>
        <time>2014-07-14T11:33:42Z</time>
      </trkpt>
      <trkpt lat="49.3149" lon="0.99765">
        <ele>85</ele>
        <time>2014-07-14T11:33:45Z</time>
      </trkpt>
      <trkpt lat="49.31475" lon="0.9977">
        <ele>84</ele>
        <time>2014-07-14T11:33:48Z</time>
      </trkpt>
      <trkpt lat="49.31458" lon="0.99775">
        <ele>80</ele>
        <time>2014-07-14T11:33:52Z</time>
      </trkpt>
      <trkpt lat="49.3144" lon="0.99778">
        <ele>77</ele>
        <time>2014-07-14T11:33:55Z</time>
      </trkpt>
      <trkpt lat="49.31423" lon="0.99778">
        <ele>68</ele>
        <time>2014-07-14T11:34:24Z</time>
      </trkpt>
      <trkpt lat="49.31413" lon="0.99763">
        <ele>67</ele>
        <time>2014-07-14T11:34:27Z</time>
      </trkpt>
      <trkpt lat="49.314" lon="0.99753">
        <ele>66</ele>
        <time>2014-07-14T11:34:32Z</time>
      </trkpt>
      <trkpt lat="49.31405" lon="0.99733">
        <ele>66</ele>
        <time>2014-07-14T11:34:37Z</time>
      </trkpt>
      <trkpt lat="49.31423" lon="0.9973">
        <ele>65</ele>
        <time>2014-07-14T11:34:42Z</time>
      </trkpt>
      <trkpt lat="49.31438" lon="0.99733">
        <ele>65</ele>
        <time>2014-07-14T11:34:46Z</time>
      </trkpt>
      <trkpt lat="49.31455" lon="0.99728">
        <ele>65</ele>
        <time>2014-07-14T11:34:50Z</time>
      </trkpt>
      <trkpt lat="49.3147" lon="0.9973">
        <ele>65</ele>
        <time>2014-07-14T11:34:53Z</time>
      </trkpt>
      <trkpt lat="49.31485" lon="0.99738">
        <ele>64</ele>
        <time>2014-07-14T11:34:57Z</time>
      </trkpt>
      <trkpt lat="49.315" lon="0.99745">
        <ele>65</ele>
        <time>2014-07-14T11:35:05Z</time>
      </trkpt>
      <trkpt lat="49.31528" lon="0.99748">
        <ele>64</ele>
        <time>2014-07-14T11:35:11Z</time>
      </trkpt>
      <trkpt lat="49.31543" lon="0.99753">
        <ele>64</ele>
        <time>2014-07-14T11:35:15Z</time>
      </trkpt>
      <trkpt lat="49.31558" lon="0.99758">
        <ele>64</ele>
        <time>2014-07-14T11:35:18Z</time>
      </trkpt>
      <trkpt lat="49.31575" lon="0.99765">
        <ele>64</ele>
        <time>2014-07-14T11:35:22Z</time>
      </trkpt>
      <trkpt lat="49.3159" lon="0.99768">
        <ele>64</ele>
        <time>2014-07-14T11:35:26Z</time>
      </trkpt>
      <trkpt lat="49.31603" lon="0.99778">
        <ele>64</ele>
        <time>2014-07-14T11:35:35Z</time>
      </trkpt>
      <trkpt lat="49.3162" lon="0.99785">
        <ele>68</ele>
        <time>2014-07-14T11:35:57Z</time>
      </trkpt>
      <trkpt lat="49.3163" lon="0.9977">
        <ele>66</ele>
        <time>2014-07-14T11:36:02Z</time>
      </trkpt>
      <trkpt lat="49.31645" lon="0.9977">
        <ele>67</ele>
        <time>2014-07-14T11:36:06Z</time>
      </trkpt>
      <trkpt lat="49.31665" lon="0.99773">
        <ele>67</ele>
        <time>2014-07-14T11:36:10Z</time>
      </trkpt>
      <trkpt lat="49.31683" lon="0.99778">
        <ele>66</ele>
        <time>2014-07-14T11:36:13Z</time>
      </trkpt>
      <trkpt lat="49.31705" lon="0.99788">
        <ele>67</ele>
        <time>2014-07-14T11:36:17Z</time>
      </trkpt>
      <trkpt lat="49.3172" lon="0.99785">
        <ele>65</ele>
        <time>2014-07-14T11:36:20Z</time>
      </trkpt>
      <trkpt lat="49.31743" lon="0.99793">
        <ele>64</ele>
        <time>2014-07-14T11:36:23Z</time>
      </trkpt>
      <trkpt lat="49.31775" lon="0.99803">
        <ele>64</ele>
        <time>2014-07-14T11:36:27Z</time>
      </trkpt>
      <trkpt lat="49.3177" lon="0.99778">
        <ele>60</ele>
        <time>2014-07-14T11:36:34Z</time>
      </trkpt>
      <trkpt lat="49.31765" lon="0.99758">
        <ele>69</ele>
        <time>2014-07-14T11:37:46Z</time>
      </trkpt>
      <trkpt lat="49.31753" lon="0.99738">
        <ele>69</ele>
        <time>2014-07-14T11:37:49Z</time>
      </trkpt>
      <trkpt lat="49.31745" lon="0.99718">
        <ele>69</ele>
        <time>2014-07-14T11:37:52Z</time>
      </trkpt>
      <trkpt lat="49.31738" lon="0.99695">
        <ele>68</ele>
        <time>2014-07-14T11:37:56Z</time>
      </trkpt>
      <trkpt lat="49.3174" lon="0.99668">
        <ele>68</ele>
        <time>2014-07-14T11:38:00Z</time>
      </trkpt>
      <trkpt lat="49.31743" lon="0.99638">
        <ele>67</ele>
        <time>2014-07-14T11:38:05Z</time>
      </trkpt>
      <trkpt lat="49.3173" lon="0.99628">
        <ele>65</ele>
        <time>2014-07-14T11:38:09Z</time>
      </trkpt>
      <trkpt lat="49.31725" lon="0.99608">
        <ele>62</ele>
        <time>2014-07-14T11:38:14Z</time>
      </trkpt>
      <trkpt lat="49.3173" lon="0.99578">
        <ele>59</ele>
        <time>2014-07-14T11:38:17Z</time>
      </trkpt>
      <trkpt lat="49.31745" lon="0.99543">
        <ele>57</ele>
        <time>2014-07-14T11:38:20Z</time>
      </trkpt>
      <trkpt lat="49.31765" lon="0.99513">
        <ele>55</ele>
        <time>2014-07-14T11:38:23Z</time>
      </trkpt>
      <trkpt lat="49.3179" lon="0.9947">
        <ele>52</ele>
        <time>2014-07-14T11:38:27Z</time>
      </trkpt>
      <trkpt lat="49.31808" lon="0.99438">
        <ele>51</ele>
        <time>2014-07-14T11:38:31Z</time>
      </trkpt>
      <trkpt lat="49.3182" lon="0.99423">
        <ele>51</ele>
        <time>2014-07-14T11:38:34Z</time>
      </trkpt>
    </trkseg>
  </trk>
</gpx>